Home > Products > Valid Products > TAF

000
FTUS44 KHGX 011516 AAA
TAFCXO
TAF AMD
KCXO 011516Z 0115/0212 33008KT P6SM OVC015
     FM011600 32004KT P6SM SCT015 BKN025 BKN120
      TEMPO 0116/0117 BKN015
     FM011700 VRB05KT P6SM BKN035
     FM012000 VRB05KT P6SM BKN040
     FM020200 VRB03KT P6SM SCT025 BKN035=



000
FTUS44 KHGX 011516 AAA
TAFCXO
TAF AMD
KCXO 011516Z 0115/0212 33008KT P6SM OVC015
     FM011600 32004KT P6SM SCT015 BKN025 BKN120
      TEMPO 0116/0117 BKN015
     FM011700 VRB05KT P6SM BKN035
     FM012000 VRB05KT P6SM BKN040
     FM020200 VRB03KT P6SM SCT025 BKN035=



000
FTUS44 KHGX 011515 AAB
TAFUTS
TAF AMD
KUTS 011515Z 0115/0212 31006KT P6SM BKN015
     FM011600 33004KT P6SM SCT012 BKN020
      TEMPO 0116/0117 BKN012
     FM011700 34007KT P6SM BKN030
     FM012100 34008KT P6SM BKN040
     FM020300 VRB03KT P6SM SCT250
     FM020900 VRB03KT P6SM SCT015 SCT250=



000
FTUS44 KHGX 011515 AAB
TAFUTS
TAF AMD
KUTS 011515Z 0115/0212 31006KT P6SM BKN015
     FM011600 33004KT P6SM SCT012 BKN020
      TEMPO 0116/0117 BKN012
     FM011700 34007KT P6SM BKN030
     FM012100 34008KT P6SM BKN040
     FM020300 VRB03KT P6SM SCT250
     FM020900 VRB03KT P6SM SCT015 SCT250=



000
FTUS44 KHGX 011446 AAA
TAFCLL
TAF AMD
KCLL 011446Z 0115/0212 33008KT P6SM SCT012 BKN020
      TEMPO 0115/0117 BKN012
     FM011700 34007KT P6SM BKN030
     FM012100 34008KT P6SM BKN040
     FM020300 02006KT P6SM SCT250
     FM020900 02004KT P6SM SCT015 SCT250=



000
FTUS44 KHGX 011446 AAA
TAFCLL
TAF AMD
KCLL 011446Z 0115/0212 33008KT P6SM SCT012 BKN020
      TEMPO 0115/0117 BKN012
     FM011700 34007KT P6SM BKN030
     FM012100 34008KT P6SM BKN040
     FM020300 02006KT P6SM SCT250
     FM020900 02004KT P6SM SCT015 SCT250=



000
FTUS44 KHGX 011440 AAA
TAFSGR
TAF AMD
KSGR 011440Z 0115/0212 34007KT P6SM FEW010 BKN025 BKN120
      TEMPO 0115/0116 BKN015
     FM011700 VRB05KT P6SM BKN035
     FM011900 VRB05KT P6SM VCTS BKN040CB
     FM020300 VRB03KT P6SM SCT025 BKN035=



000
FTUS44 KHGX 011440 AAA
TAFSGR
TAF AMD
KSGR 011440Z 0115/0212 34007KT P6SM FEW010 BKN025 BKN120
      TEMPO 0115/0116 BKN015
     FM011700 VRB05KT P6SM BKN035
     FM011900 VRB05KT P6SM VCTS BKN040CB
     FM020300 VRB03KT P6SM SCT025 BKN035=



000
FTUS44 KHGX 011439 AAA
TAFHOU
TAF AMD
KHOU 011439Z 0115/0212 28006KT P6SM FEW010 BKN025 BKN120
      TEMPO 0115/0116 BKN015
     FM011700 VRB05KT P6SM BKN035
     FM011900 VRB05KT P6SM VCTS BKN040CB
     FM020300 VRB03KT P6SM SCT025 BKN035=



000
FTUS44 KHGX 011439 AAA
TAFHOU
TAF AMD
KHOU 011439Z 0115/0212 28006KT P6SM FEW010 BKN025 BKN120
      TEMPO 0115/0116 BKN015
     FM011700 VRB05KT P6SM BKN035
     FM011900 VRB05KT P6SM VCTS BKN040CB
     FM020300 VRB03KT P6SM SCT025 BKN035=



000
FTUS44 KHGX 011437 AAA
TAFIAH
TAF AMD
KIAH 011437Z 0115/0218 32004KT P6SM BKN025 BKN120
      TEMPO 0115/0116 BKN015
     FM011700 VRB05KT P6SM BKN035
     FM012000 VRB05KT P6SM VCTS BKN040CB
     FM020200 VRB03KT P6SM SCT025 BKN035
     FM021500 34005KT P6SM FEW030 BKN050=



000
FTUS44 KHGX 011437 AAA
TAFIAH
TAF AMD
KIAH 011437Z 0115/0218 32004KT P6SM BKN025 BKN120
      TEMPO 0115/0116 BKN015
     FM011700 VRB05KT P6SM BKN035
     FM012000 VRB05KT P6SM VCTS BKN040CB
     FM020200 VRB03KT P6SM SCT025 BKN035
     FM021500 34005KT P6SM FEW030 BKN050=



000
FTUS44 KHGX 011247 CCA
TAFUTS
TAF COR
KUTS 011247Z 0113/0212 32004KT 5SM BR OVC004
      TEMPO 0113/0115 6SM BKN006 OVC012
     FM011600 32006KT P6SM FEW025 BKN040
     FM012100 35007KT P6SM SCT050
     FM020500 36003KT P6SM SCT020=



000
FTUS44 KHGX 011242 AAA
TAFUTS
TAF AMD
KUTS 011242Z 0113/0212 31004KT P6SM FEW030 BKN050
      TEMPO 0113/0114 OVC006
     FM012100 35007KT P6SM SCT050
     FM020500 36003KT P6SM SCT020=



000
FTUS44 KHGX 011242 AAA
TAFUTS
TAF AMD
KUTS 011242Z 0113/0212 31004KT P6SM FEW030 BKN050
      TEMPO 0113/0114 OVC006
     FM012100 35007KT P6SM SCT050
     FM020500 36003KT P6SM SCT020=



000
FTUS44 KHGX 011125
TAFCXO
TAF
KCXO 011125Z 0112/0212 33005KT P6SM OVC015
      TEMPO 0112/0113 BKN006 OVC012
     FM011500 31005KT P6SM SCT025 BKN040
     FM012100 34005KT P6SM FEW050 BKN200=



000
FTUS44 KHGX 011125
TAFIAH
TAF
KIAH 011125Z 0112/0218 26005KT P6SM BKN025 OVC090
      TEMPO 0112/0113 OVC008
     FM011500 29006KT P6SM SCT025 BKN200
     FM012000 33005KT P6SM VCTS BKN040CB OVC200
     FM020200 35003KT P6SM SCT025 BKN035
     FM021500 34005KT P6SM FEW030 BKN050=



000
FTUS44 KHGX 011125
TAFSGR
TAF
KSGR 011125Z 0112/0212 22007KT P6SM SCT030 BKN050 OVC070
     FM012100 28005KT P6SM VCTS BKN040CB
     FM020200 VRB03KT P6SM SCT015 BKN035 OVC200=



000
FTUS44 KHGX 011125
TAFGLS
TAF
KGLS 011125Z 0112/0212 24004KT P6SM VCTS SCT015 BKN050CB
     FM011400 25008KT P6SM VCSH SCT040 BKN060
     FM012100 20008KT P6SM VCTS BKN035CB
     FM020400 22006KT P6SM SCT025 BKN045=



000
FTUS44 KHGX 011125
TAFUTS
TAF
KUTS 011125Z 0112/0212 31004KT P6SM FEW030 BKN050
      TEMPO 0112/0113 OVC006
     FM012100 35007KT P6SM SCT050
     FM020500 36003KT P6SM SCT020=



000
FTUS44 KHGX 011125
TAFLBX
TAF
KLBX 011125Z 0112/0212 36003KT P6SM -RA VCSH FEW020 SCT040 BKN080
     FM011300 25003KT P6SM BKN025 BKN250
     FM011800 29005KT P6SM VCTS SCT020 BKN040CB
      TEMPO 0119/0123 4SM -TSRA OVC030CB
     FM020600 VRB03KT P6SM FEW035 BKN250=



000
FTUS44 KHGX 011125
TAFCLL
TAF
KCLL 011125Z 0112/0212 33005KT P6SM SCT025 BKN050
     FM011700 35007KT P6SM FEW035 SCT060
     FM020300 02006KT P6SM FEW025 SCT250=



000
FTUS44 KHGX 011125
TAFHOU
TAF
KHOU 011125Z 0112/0212 24011KT P6SM FEW030 BKN080 BKN250
     FM011900 27005KT P6SM VCTS BKN040CB
     FM020300 VRB05KT P6SM SCT015 BKN035 OVC200=



000
FTUS44 KHGX 011125
TAFLBX
TAF
KLBX 011125Z 0112/0212 36003KT P6SM -RA VCSH FEW020 SCT040 BKN080
     FM011300 25003KT P6SM BKN025 BKN250
     FM011800 29005KT P6SM VCTS SCT020 BKN040CB
      TEMPO 0119/0123 4SM -TSRA OVC030CB
     FM020600 VRB03KT P6SM FEW035 BKN250=



000
FTUS44 KHGX 011125
TAFCLL
TAF
KCLL 011125Z 0112/0212 33005KT P6SM SCT025 BKN050
     FM011700 35007KT P6SM FEW035 SCT060
     FM020300 02006KT P6SM FEW025 SCT250=



000
FTUS44 KHGX 011125
TAFCXO
TAF
KCXO 011125Z 0112/0212 33005KT P6SM OVC015
      TEMPO 0112/0113 BKN006 OVC012
     FM011500 31005KT P6SM SCT025 BKN040
     FM012100 34005KT P6SM FEW050 BKN200=



000
FTUS44 KHGX 011125
TAFGLS
TAF
KGLS 011125Z 0112/0212 24004KT P6SM VCTS SCT015 BKN050CB
     FM011400 25008KT P6SM VCSH SCT040 BKN060
     FM012100 20008KT P6SM VCTS BKN035CB
     FM020400 22006KT P6SM SCT025 BKN045=



000
FTUS44 KHGX 011125
TAFUTS
TAF
KUTS 011125Z 0112/0212 31004KT P6SM FEW030 BKN050
      TEMPO 0112/0113 OVC006
     FM012100 35007KT P6SM SCT050
     FM020500 36003KT P6SM SCT020=



000
FTUS44 KHGX 011125
TAFIAH
TAF
KIAH 011125Z 0112/0218 26005KT P6SM BKN025 OVC090
      TEMPO 0112/0113 OVC008
     FM011500 29006KT P6SM SCT025 BKN200
     FM012000 33005KT P6SM VCTS BKN040CB OVC200
     FM020200 35003KT P6SM SCT025 BKN035
     FM021500 34005KT P6SM FEW030 BKN050=



000
FTUS44 KHGX 011125
TAFSGR
TAF
KSGR 011125Z 0112/0212 22007KT P6SM SCT030 BKN050 OVC070
     FM012100 28005KT P6SM VCTS BKN040CB
     FM020200 VRB03KT P6SM SCT015 BKN035 OVC200=



000
FTUS44 KHGX 011125
TAFHOU
TAF
KHOU 011125Z 0112/0212 24011KT P6SM FEW030 BKN080 BKN250
     FM011900 27005KT P6SM VCTS BKN040CB
     FM020300 VRB05KT P6SM SCT015 BKN035 OVC200=



000
FTUS44 KHGX 010941 AAD
TAFSGR
TAF AMD
KSGR 010941Z 0110/0206 21008KT P6SM -RA VCTS FEW025 SCT040CB OVC050
     FM011100 27003KT P6SM SCT015 BKN040
     FM012100 27005KT P6SM VCSH BKN040
     FM020200 35005KT P6SM SCT015 BKN035=



000
FTUS44 KHGX 010941 AAD
TAFSGR
TAF AMD
KSGR 010941Z 0110/0206 21008KT P6SM -RA VCTS FEW025 SCT040CB OVC050
     FM011100 27003KT P6SM SCT015 BKN040
     FM012100 27005KT P6SM VCSH BKN040
     FM020200 35005KT P6SM SCT015 BKN035=



000
FTUS44 KHGX 010847 AAC
TAFSGR
TAF AMD
KSGR 010847Z 0109/0206 VRB08KT 1SM +TSRA VCTS SCT025 BKN040CB
      OVC060
     FM011100 27003KT P6SM SCT015 BKN040
     FM012100 27005KT P6SM VCSH BKN040
     FM020200 35005KT P6SM SCT015 BKN035=



000
FTUS44 KHGX 010847 AAC
TAFSGR
TAF AMD
KSGR 010847Z 0109/0206 VRB08KT 1SM +TSRA VCTS SCT025 BKN040CB
      OVC060
     FM011100 27003KT P6SM SCT015 BKN040
     FM012100 27005KT P6SM VCSH BKN040
     FM020200 35005KT P6SM SCT015 BKN035=



000
FTUS44 KHGX 010806 AAA
TAFGLS
TAF AMD
KGLS 010806Z 0108/0206 22006KT P6SM VCTS SCT020 BKN035CB
      TEMPO 0110/0112 VRB20KT 4SM -TSRA BKN025CB OVC040
     FM011400 27008KT P6SM VCTS BKN040CB
     FM012100 20008KT P6SM VCTS BKN040CB PROB30 0121/0124 TSRA
      BKN025CB=



000
FTUS44 KHGX 010806 AAA
TAFGLS
TAF AMD
KGLS 010806Z 0108/0206 22006KT P6SM VCTS SCT020 BKN035CB
      TEMPO 0110/0112 VRB20KT 4SM -TSRA BKN025CB OVC040
     FM011400 27008KT P6SM VCTS BKN040CB
     FM012100 20008KT P6SM VCTS BKN040CB PROB30 0121/0124 TSRA
      BKN025CB=



000
FTUS44 KHGX 010802 AAA
TAFLBX
TAF AMD
KLBX 010802Z 0108/0206 19010KT P6SM VCTS BKN035CB BKN090
      TEMPO 0108/0110 VRB25KT 2SM TSRA OVC020CB
     FM011200 VRB03KT P6SM VCSH BKN035
     FM011800 29005KT P6SM VCTS SCT020 BKN040CB
      TEMPO 0118/0121 4SM -TSRA SCT030 BKN050CB=



000
FTUS44 KHGX 010758 AAB
TAFSGR
TAF AMD
KSGR 010758Z 0108/0206 14012KT 6SM -TSRA VCTS SCT025 BKN040CB
      OVC060
     FM011100 27003KT P6SM SCT015 BKN040
     FM012100 27005KT P6SM VCSH BKN040
     FM020200 35005KT P6SM SCT015 BKN035=



000
FTUS44 KHGX 010758 AAB
TAFSGR
TAF AMD
KSGR 010758Z 0108/0206 14012KT 6SM -TSRA VCTS SCT025 BKN040CB
      OVC060
     FM011100 27003KT P6SM SCT015 BKN040
     FM012100 27005KT P6SM VCSH BKN040
     FM020200 35005KT P6SM SCT015 BKN035=



000
FTUS44 KHGX 010757 CCA
TAFHOU
TAF COR
KHOU 010757Z 0108/0206 20006KT P6SM -TSRA VCSH SCT015 BKN035CB
     FM011100 26003KT P6SM BKN040
     FM012100 27005KT P6SM VCSH BKN040
     FM020200 35005KT P6SM SCT015 BKN035=



000
FTUS44 KHGX 010757 CCA
TAFHOU
TAF COR
KHOU 010757Z 0108/0206 20006KT P6SM -TSRA VCSH SCT015 BKN035CB
     FM011100 26003KT P6SM BKN040
     FM012100 27005KT P6SM VCSH BKN040
     FM020200 35005KT P6SM SCT015 BKN035=



000
FTUS44 KHGX 010753 AAA
TAFHOU
TAF AMD
KHOU 010753Z 0108/0206 28011KT 6SM -TSRA BR VCTS SCT015 BKN035CB
     FM011400 27005KT P6SM BKN040
     FM012100 27005KT P6SM VCSH BKN040
     FM020200 35005KT P6SM SCT015 BKN035=



000
FTUS44 KHGX 010753 AAA
TAFHOU
TAF AMD
KHOU 010753Z 0108/0206 28011KT 6SM -TSRA BR VCTS SCT015 BKN035CB
     FM011400 27005KT P6SM BKN040
     FM012100 27005KT P6SM VCSH BKN040
     FM020200 35005KT P6SM SCT015 BKN035=



000
FTUS44 KHGX 010752 AAA
TAFIAH
TAF AMD
KIAH 010752Z 0108/0212 20007KT P6SM -RA VCSH BKN035 OVC050
     FM011400 29005KT P6SM BKN040
     FM012100 33005KT P6SM VCSH BKN040
     FM020200 35005KT P6SM SCT015 BKN035=



000
FTUS44 KHGX 010752 AAA
TAFIAH
TAF AMD
KIAH 010752Z 0108/0212 20007KT P6SM -RA VCSH BKN035 OVC050
     FM011400 29005KT P6SM BKN040
     FM012100 33005KT P6SM VCSH BKN040
     FM020200 35005KT P6SM SCT015 BKN035=



000
FTUS44 KHGX 010631 AAA
TAFSGR
TAF AMD
KSGR 010631Z 0107/0206 VRB05KT 6SM TSRA VCTS BKN015CB BKN060
      TEMPO 0107/0108 VRB25KT 2SM +TSRA OVC015CB
     FM011400 27005KT P6SM SCT015 BKN040
     FM012100 27005KT P6SM VCSH BKN040
     FM020200 35005KT P6SM SCT015 BKN035=



000
FTUS44 KHGX 010631 AAA
TAFSGR
TAF AMD
KSGR 010631Z 0107/0206 VRB05KT 6SM TSRA VCTS BKN015CB BKN060
      TEMPO 0107/0108 VRB25KT 2SM +TSRA OVC015CB
     FM011400 27005KT P6SM SCT015 BKN040
     FM012100 27005KT P6SM VCSH BKN040
     FM020200 35005KT P6SM SCT015 BKN035=



000
FTUS44 KHGX 010520
TAFCXO
TAF
KCXO 010520Z 0106/0206 VRB04KT P6SM VCTS SCT015 SCT040CB BKN120
      TEMPO 0106/0110 VRB15G28KT 2SM TSRA BKN015CB
     FM011300 31005KT P6SM BKN035
     FM012100 34007KT P6SM BKN040
     FM020200 VRB02KT P6SM SCT035=



000
FTUS44 KHGX 010520
TAFLBX
TAF
KLBX 010520Z 0106/0206 19010KT P6SM VCTS BKN035CB BKN090
      TEMPO 0107/0111 VRB15G28KT 2SM TSRA BKN015CB
     FM011400 VRB06KT P6SM VCTS BKN040CB=



000
FTUS44 KHGX 010520
TAFGLS
TAF
KGLS 010520Z 0106/0206 20010KT P6SM VCTS BKN035CB BKN090
      TEMPO 0107/0111 VRB15G28KT 2SM TSRA BKN015CB
     FM011400 27008KT P6SM VCTS BKN040CB PROB30 0115/0121 TSRA
      BKN025CB
     FM012100 19008KT P6SM VCTS BKN040CB PROB30 0121/0124 TSRA
      BKN025CB=



000
FTUS44 KHGX 010520
TAFHOU
TAF
KHOU 010520Z 0106/0206 20012KT P6SM VCTS SCT015CB SCT110 BKN250
      TEMPO 0106/0110 VRB15G28KT 2SM TSRA BKN015CB
     FM011400 27005KT P6SM BKN040
     FM012100 27005KT P6SM VCSH BKN040
     FM020200 35005KT P6SM SCT015 BKN035=



000
FTUS44 KHGX 010520
TAFIAH
TAF
KIAH 010520Z 0106/0212 VRB05KT P6SM VCTS SCT015CB SCT120 BKN250
      TEMPO 0106/0110 VRB15G28KT 2SM TSRA BKN015CB
     FM011400 29005KT P6SM BKN040
     FM012100 33005KT P6SM VCSH BKN040
     FM020200 35005KT P6SM SCT015 BKN035=



000
FTUS44 KHGX 010520
TAFUTS
TAF
KUTS 010520Z 0106/0206 VRB04KT P6SM VCSH BKN025
     FM011300 31006KT P6SM SCT035
     FM012100 34007KT P6SM BKN040
     FM020200 VRB02KT P6SM SCT035=



000
FTUS44 KHGX 010520
TAFUTS
TAF
KUTS 010520Z 0106/0206 VRB04KT P6SM VCSH BKN025
     FM011300 31006KT P6SM SCT035
     FM012100 34007KT P6SM BKN040
     FM020200 VRB02KT P6SM SCT035=



000
FTUS44 KHGX 010520
TAFCLL
TAF
KCLL 010520Z 0106/0206 29004KT P6SM SCT025 BKN050
     FM010900 34004KT P6SM SCT015 BKN040
     FM011500 33006KT P6SM SCT035=



000
FTUS44 KHGX 010520
TAFIAH
TAF
KIAH 010520Z 0106/0212 VRB05KT P6SM VCTS SCT015CB SCT120 BKN250
      TEMPO 0106/0110 VRB15G28KT 2SM TSRA BKN015CB
     FM011400 29005KT P6SM BKN040
     FM012100 33005KT P6SM VCSH BKN040
     FM020200 35005KT P6SM SCT015 BKN035=



000
FTUS44 KHGX 010520
TAFSGR
TAF
KSGR 010520Z 0106/0206 VRB05KT P6SM VCTS BKN015CB BKN060
     FM011400 27005KT P6SM SCT015 BKN040
     FM012100 27005KT P6SM VCSH BKN040
     FM020200 35005KT P6SM SCT015 BKN035=



000
FTUS44 KHGX 010520
TAFGLS
TAF
KGLS 010520Z 0106/0206 20010KT P6SM VCTS BKN035CB BKN090
      TEMPO 0107/0111 VRB15G28KT 2SM TSRA BKN015CB
     FM011400 27008KT P6SM VCTS BKN040CB PROB30 0115/0121 TSRA
      BKN025CB
     FM012100 19008KT P6SM VCTS BKN040CB PROB30 0121/0124 TSRA
      BKN025CB=



000
FTUS44 KHGX 010520
TAFCLL
TAF
KCLL 010520Z 0106/0206 29004KT P6SM SCT025 BKN050
     FM010900 34004KT P6SM SCT015 BKN040
     FM011500 33006KT P6SM SCT035=



000
FTUS44 KHGX 010520
TAFCXO
TAF
KCXO 010520Z 0106/0206 VRB04KT P6SM VCTS SCT015 SCT040CB BKN120
      TEMPO 0106/0110 VRB15G28KT 2SM TSRA BKN015CB
     FM011300 31005KT P6SM BKN035
     FM012100 34007KT P6SM BKN040
     FM020200 VRB02KT P6SM SCT035=



000
FTUS44 KHGX 010520
TAFLBX
TAF
KLBX 010520Z 0106/0206 19010KT P6SM VCTS BKN035CB BKN090
      TEMPO 0107/0111 VRB15G28KT 2SM TSRA BKN015CB
     FM011400 VRB06KT P6SM VCTS BKN040CB=



000
FTUS44 KHGX 010520
TAFHOU
TAF
KHOU 010520Z 0106/0206 20012KT P6SM VCTS SCT015CB SCT110 BKN250
      TEMPO 0106/0110 VRB15G28KT 2SM TSRA BKN015CB
     FM011400 27005KT P6SM BKN040
     FM012100 27005KT P6SM VCSH BKN040
     FM020200 35005KT P6SM SCT015 BKN035=



000
FTUS44 KHGX 010520
TAFSGR
TAF
KSGR 010520Z 0106/0206 VRB05KT P6SM VCTS BKN015CB BKN060
     FM011400 27005KT P6SM SCT015 BKN040
     FM012100 27005KT P6SM VCSH BKN040
     FM020200 35005KT P6SM SCT015 BKN035=



000
FTUS44 KHGX 010444 AAC
TAFIAH
TAF AMD
KIAH 010444Z 0105/0206 VRB05KT P6SM VCTS SCT050CB SCT120 BKN250
      TEMPO 0105/0107 VRB15G28KT 1SM TSRA BKN012CB
     FM011000 24003KT P6SM VCSH BKN050
     FM011400 28005KT P6SM BKN040
     FM012100 32005KT P6SM VCSH BKN040
     FM020200 35005KT P6SM BKN035=



000
FTUS44 KHGX 010444 AAC
TAFIAH
TAF AMD
KIAH 010444Z 0105/0206 VRB05KT P6SM VCTS SCT050CB SCT120 BKN250
      TEMPO 0105/0107 VRB15G28KT 1SM TSRA BKN012CB
     FM011000 24003KT P6SM VCSH BKN050
     FM011400 28005KT P6SM BKN040
     FM012100 32005KT P6SM VCSH BKN040
     FM020200 35005KT P6SM BKN035=



000
FTUS44 KHGX 010434 AAA
TAFSGR
TAF AMD
KSGR 010434Z 0105/0124 13009KT P6SM VCTS BKN015CB BKN060
     FM010700 VRB03KT P6SM VCSH SCT015 BKN040
     FM011000 23003KT P6SM VCSH BKN050
     FM011400 27005KT P6SM SCT015 BKN040
     FM012100 27005KT P6SM VCSH BKN040=



000
FTUS44 KHGX 010434 AAA
TAFSGR
TAF AMD
KSGR 010434Z 0105/0124 13009KT P6SM VCTS BKN015CB BKN060
     FM010700 VRB03KT P6SM VCSH SCT015 BKN040
     FM011000 23003KT P6SM VCSH BKN050
     FM011400 27005KT P6SM SCT015 BKN040
     FM012100 27005KT P6SM VCSH BKN040=



000
FTUS44 KHGX 010406 AAC
TAFCXO
TAF AMD
KCXO 010406Z 0104/0124 00000KT P6SM VCTS SCT040CB BKN120
      TEMPO 0104/0108 VRB15G28KT 2SM TSRA BKN008 BKN035CB
     FM011000 24003KT P6SM VCSH SCT015 BKN050
     FM011400 27005KT P6SM BKN035=



000
FTUS44 KHGX 010406 AAB
TAFIAH
TAF AMD
KIAH 010406Z 0104/0206 VRB05KT P6SM VCTS SCT050CB SCT120 BKN250
      TEMPO 0104/0107 VRB15G28KT 4SM TSRA BKN015CB
     FM011000 24003KT P6SM VCSH BKN050
     FM011400 28005KT P6SM BKN040
     FM012100 32005KT P6SM VCSH BKN040
     FM020200 35005KT P6SM BKN035=



000
FTUS44 KHGX 010406 AAC
TAFCXO
TAF AMD
KCXO 010406Z 0104/0124 00000KT P6SM VCTS SCT040CB BKN120
      TEMPO 0104/0108 VRB15G28KT 2SM TSRA BKN008 BKN035CB
     FM011000 24003KT P6SM VCSH SCT015 BKN050
     FM011400 27005KT P6SM BKN035=



000
FTUS44 KHGX 010406 AAB
TAFIAH
TAF AMD
KIAH 010406Z 0104/0206 VRB05KT P6SM VCTS SCT050CB SCT120 BKN250
      TEMPO 0104/0107 VRB15G28KT 4SM TSRA BKN015CB
     FM011000 24003KT P6SM VCSH BKN050
     FM011400 28005KT P6SM BKN040
     FM012100 32005KT P6SM VCSH BKN040
     FM020200 35005KT P6SM BKN035=



000
FTUS44 KHGX 010357 AAB
TAFCXO
TAF AMD
KCXO 010357Z 0104/0124 00000KT P6SM VCTS SCT040CB BKN120
      TEMPO 0104/0108 VRB15G28KT 2SM TSRA BKN035CB
     FM011000 24003KT P6SM VCSH SCT015 BKN050
     FM011400 27005KT P6SM BKN035=



000
FTUS44 KHGX 010357 AAB
TAFCXO
TAF AMD
KCXO 010357Z 0104/0124 00000KT P6SM VCTS SCT040CB BKN120
      TEMPO 0104/0108 VRB15G28KT 2SM TSRA BKN035CB
     FM011000 24003KT P6SM VCSH SCT015 BKN050
     FM011400 27005KT P6SM BKN035=



000
FTUS44 KHGX 010304 AAA
TAFHOU
TAF AMD
KHOU 010304Z 0103/0124 20012KT P6SM VCTS SCT050CB SCT110 BKN250
      TEMPO 0103/0107 VRB15G28KT 4SM TSRA BKN035CB
     FM011000 23003KT P6SM VCSH SCT015 BKN050
     FM011400 27005KT P6SM BKN040
     FM012100 27005KT P6SM VCSH BKN040=



000
FTUS44 KHGX 010304 AAA
TAFHOU
TAF AMD
KHOU 010304Z 0103/0124 20012KT P6SM VCTS SCT050CB SCT110 BKN250
      TEMPO 0103/0107 VRB15G28KT 4SM TSRA BKN035CB
     FM011000 23003KT P6SM VCSH SCT015 BKN050
     FM011400 27005KT P6SM BKN040
     FM012100 27005KT P6SM VCSH BKN040=



000
FTUS44 KHGX 010304 AAA
TAFIAH
TAF AMD
KIAH 010304Z 0103/0206 VRB05KT P6SM VCTS SCT050CB SCT120 BKN250
      TEMPO 0103/0107 VRB15G28KT 4SM TSRA BKN035CB
     FM011000 24003KT P6SM VCSH BKN050
     FM011400 28005KT P6SM BKN040
     FM012100 32005KT P6SM VCSH BKN040
     FM020200 35005KT P6SM BKN035=



000
FTUS44 KHGX 010304 AAA
TAFIAH
TAF AMD
KIAH 010304Z 0103/0206 VRB05KT P6SM VCTS SCT050CB SCT120 BKN250
      TEMPO 0103/0107 VRB15G28KT 4SM TSRA BKN035CB
     FM011000 24003KT P6SM VCSH BKN050
     FM011400 28005KT P6SM BKN040
     FM012100 32005KT P6SM VCSH BKN040
     FM020200 35005KT P6SM BKN035=



000
FTUS44 KHGX 010219 AAA
TAFCXO
TAF AMD
KCXO 010219Z 0102/0124 00000KT P6SM VCTS SCT040CB BKN120
      TEMPO 0102/0104 VRB15G28KT 2SM TSRA BKN035CB
     FM011000 24003KT P6SM VCSH SCT015 BKN050
     FM011400 27005KT P6SM BKN035=



000
FTUS44 KHGX 010219 AAA
TAFCXO
TAF AMD
KCXO 010219Z 0102/0124 00000KT P6SM VCTS SCT040CB BKN120
      TEMPO 0102/0104 VRB15G28KT 2SM TSRA BKN035CB
     FM011000 24003KT P6SM VCSH SCT015 BKN050
     FM011400 27005KT P6SM BKN035=



000
FTUS44 KHGX 010201 AAB
TAFUTS
TAF AMD
KUTS 010201Z 0102/0124 32007KT P6SM VCSH BKN050
     FM010900 33005KT P6SM FEW015 BKN040
     FM011500 33006KT P6SM SCT035=



000
FTUS44 KHGX 010144 AAA
TAFUTS
TAF AMD
KUTS 010144Z 0102/0124 32007KT P6SM BKN050
     FM010900 33005KT P6SM FEW015 BKN040
     FM011500 33006KT P6SM SCT035=



000
FTUS44 KHGX 010144 AAA
TAFUTS
TAF AMD
KUTS 010144Z 0102/0124 32007KT P6SM BKN050
     FM010900 33005KT P6SM FEW015 BKN040
     FM011500 33006KT P6SM SCT035=



000
FTUS44 KHGX 312334 AAA
TAFCLL
TAF AMD
KCLL 312334Z 0100/0124 23006KT P6SM VCTS SCT040CB
      TEMPO 0100/0101 VRB15G28KT 1SM TSRA BKN035CB
     FM010200 29004KT P6SM BKN050
     FM010900 34004KT P6SM FEW015 BKN040
     FM011500 33006KT P6SM SCT035=



000
FTUS44 KHGX 312325
TAFCXO
TAF
KCXO 312325Z 0100/0124 00000KT P6SM VCSH SCT040 BKN120
      TEMPO 0100/0104 VRB15G28KT 2SM TSRA BKN035CB
     FM011000 24003KT P6SM VCSH SCT015 BKN050
     FM011400 27005KT P6SM BKN035=



000
FTUS44 KHGX 312325
TAFIAH
TAF
KIAH 312325Z 0100/0206 VRB05KT P6SM VCTS SCT050CB SCT120 BKN250
      TEMPO 0100/0104 VRB15G28KT 4SM TSRA BKN035CB
     FM011000 24003KT P6SM VCSH BKN050
     FM011400 28005KT P6SM BKN040
     FM012100 32005KT P6SM VCSH BKN040
     FM020200 35005KT P6SM BKN035=



000
FTUS44 KHGX 312325
TAFUTS
TAF
KUTS 312325Z 0100/0124 22007KT P6SM VCTS SCT060CB
      TEMPO 0100/0102 VRB15G28KT 2SM TSRA BKN035CB
     FM010300 29004KT P6SM VCSH BKN050
     FM010900 31005KT P6SM FEW015 BKN040
     FM011500 32006KT P6SM SCT035=



000
FTUS44 KHGX 312325
TAFLBX
TAF
KLBX 312325Z 0100/0124 19010KT P6SM VCTS BKN035CB BKN090
     FM011400 27005KT P6SM VCSH BKN040=



000
FTUS44 KHGX 312325
TAFGLS
TAF
KGLS 312325Z 0100/0124 21005KT P6SM VCTS BKN035CB BKN090
     FM011500 25005KT P6SM VCTS BKN050CB=



000
FTUS44 KHGX 312325
TAFHOU
TAF
KHOU 312325Z 0100/0124 20012KT P6SM VCTS SCT050CB SCT110 BKN250
      TEMPO 0101/0105 VRB15G28KT 4SM TSRA BKN035CB
     FM011000 23003KT P6SM VCSH SCT015 BKN050
     FM011400 27005KT P6SM BKN040
     FM012100 27005KT P6SM VCSH BKN040=



000
FTUS44 KHGX 312325
TAFSGR
TAF
KSGR 312325Z 0100/0124 13009KT P6SM VCTS BKN040CB BKN060
      TEMPO 0100/0101 VRB15G28KT 4SM TSRA BKN035CB
     FM010700 VRB03KT P6SM VCSH SCT015 BKN040
     FM011000 23003KT P6SM VCSH BKN050
     FM011400 27005KT P6SM SCT015 BKN040
     FM012100 27005KT P6SM VCSH BKN040=



000
FTUS44 KHGX 312325
TAFCLL
TAF
KCLL 312325Z 0100/0124 23006KT P6SM VCTS SCT040CB
      TEMPO 0100/0101 VRB15G28KT 2SM TSRA BKN035CB
     FM010200 29004KT P6SM BKN050
     FM010900 34004KT P6SM FEW015 BKN040
     FM011500 33006KT P6SM SCT035=



000
FTUS44 KHGX 312325
TAFLBX
TAF
KLBX 312325Z 0100/0124 19010KT P6SM VCTS BKN035CB BKN090
     FM011400 27005KT P6SM VCSH BKN040=



000
FTUS44 KHGX 312325
TAFGLS
TAF
KGLS 312325Z 0100/0124 21005KT P6SM VCTS BKN035CB BKN090
     FM011500 25005KT P6SM VCTS BKN050CB=



000
FTUS44 KHGX 312325
TAFUTS
TAF
KUTS 312325Z 0100/0124 22007KT P6SM VCTS SCT060CB
      TEMPO 0100/0102 VRB15G28KT 2SM TSRA BKN035CB
     FM010300 29004KT P6SM VCSH BKN050
     FM010900 31005KT P6SM FEW015 BKN040
     FM011500 32006KT P6SM SCT035=



000
FTUS44 KHGX 312325
TAFCLL
TAF
KCLL 312325Z 0100/0124 23006KT P6SM VCTS SCT040CB
      TEMPO 0100/0101 VRB15G28KT 2SM TSRA BKN035CB
     FM010200 29004KT P6SM BKN050
     FM010900 34004KT P6SM FEW015 BKN040
     FM011500 33006KT P6SM SCT035=



000
FTUS44 KHGX 312325
TAFSGR
TAF
KSGR 312325Z 0100/0124 13009KT P6SM VCTS BKN040CB BKN060
      TEMPO 0100/0101 VRB15G28KT 4SM TSRA BKN035CB
     FM010700 VRB03KT P6SM VCSH SCT015 BKN040
     FM011000 23003KT P6SM VCSH BKN050
     FM011400 27005KT P6SM SCT015 BKN040
     FM012100 27005KT P6SM VCSH BKN040=



000
FTUS44 KHGX 312325
TAFIAH
TAF
KIAH 312325Z 0100/0206 VRB05KT P6SM VCTS SCT050CB SCT120 BKN250
      TEMPO 0100/0104 VRB15G28KT 4SM TSRA BKN035CB
     FM011000 24003KT P6SM VCSH BKN050
     FM011400 28005KT P6SM BKN040
     FM012100 32005KT P6SM VCSH BKN040
     FM020200 35005KT P6SM BKN035=



000
FTUS44 KHGX 312325
TAFHOU
TAF
KHOU 312325Z 0100/0124 20012KT P6SM VCTS SCT050CB SCT110 BKN250
      TEMPO 0101/0105 VRB15G28KT 4SM TSRA BKN035CB
     FM011000 23003KT P6SM VCSH SCT015 BKN050
     FM011400 27005KT P6SM BKN040
     FM012100 27005KT P6SM VCSH BKN040=



000
FTUS44 KHGX 312325
TAFCXO
TAF
KCXO 312325Z 0100/0124 00000KT P6SM VCSH SCT040 BKN120
      TEMPO 0100/0104 VRB15G28KT 2SM TSRA BKN035CB
     FM011000 24003KT P6SM VCSH SCT015 BKN050
     FM011400 27005KT P6SM BKN035=



000
FTUS44 KHGX 312200 AAC
TAFIAH
TAF AMD
KIAH 312200Z 3122/0124 VRB05KT P6SM VCTS SCT050CB SCT120 BKN250
      TEMPO 3122/0102 VRB10G25KT 4SM TSRA BKN035CB
     FM011000 24003KT P6SM VCSH BKN050
     FM011400 27005KT P6SM SCT015 BKN040
     FM012100 30005KT P6SM VCSH BKN040=



000
FTUS44 KHGX 312200 AAC
TAFIAH
TAF AMD
KIAH 312200Z 3122/0124 VRB05KT P6SM VCTS SCT050CB SCT120 BKN250
      TEMPO 3122/0102 VRB10G25KT 4SM TSRA BKN035CB
     FM011000 24003KT P6SM VCSH BKN050
     FM011400 27005KT P6SM SCT015 BKN040
     FM012100 30005KT P6SM VCSH BKN040=



000
FTUS44 KHGX 312100 AAB
TAFIAH
TAF AMD
KIAH 312100Z 3121/0124 VRB05KT P6SM VCSH SCT045 SCT120 BKN250
      TEMPO 3122/0102 VRB10G25KT 4SM TSRA BKN035CB
     FM011000 24003KT P6SM VCSH BKN050
     FM011400 27005KT P6SM SCT015 BKN040
     FM012100 30005KT P6SM VCSH BKN040=



000
FTUS44 KHGX 312059 AAC
TAFHOU
TAF AMD
KHOU 312059Z 3121/0118 19012KT P6SM VCTS SCT050CB SCT110 BKN250
      TEMPO 3121/3123 VRB20KT 4SM TSRA BKN035CB
     FM010700 VRB03KT P6SM VCSH SCT015 BKN040
     FM011000 23003KT P6SM VCSH BKN050
     FM011400 27005KT P6SM SCT015 BKN040=



000
FTUS44 KHGX 312059 AAC
TAFHOU
TAF AMD
KHOU 312059Z 3121/0118 19012KT P6SM VCTS SCT050CB SCT110 BKN250
      TEMPO 3121/3123 VRB20KT 4SM TSRA BKN035CB
     FM010700 VRB03KT P6SM VCSH SCT015 BKN040
     FM011000 23003KT P6SM VCSH BKN050
     FM011400 27005KT P6SM SCT015 BKN040=



000
FTUS44 KHGX 312038 AAA
TAFLBX
TAF AMD
KLBX 312038Z 3121/0118 19012KT P6SM VCTS FEW035CB SCT050 SCT060
      TEMPO 3122/0102 VRB10G25KT 4SM TSRA BKN035CB
     FM011200 VRB03KT P6SM VCSH BKN050
     FM011500 27005KT P6SM SCT015 BKN040=



000
FTUS44 KHGX 312038 AAA
TAFLBX
TAF AMD
KLBX 312038Z 3121/0118 19012KT P6SM VCTS FEW035CB SCT050 SCT060
      TEMPO 3122/0102 VRB10G25KT 4SM TSRA BKN035CB
     FM011200 VRB03KT P6SM VCSH BKN050
     FM011500 27005KT P6SM SCT015 BKN040=



000
FTUS44 KHGX 312037 AAC
TAFSGR
TAF AMD
KSGR 312037Z 3121/0118 13009KT P6SM VCTS BKN040CB BKN060
      TEMPO 3121/0101 VRB10G25KT 4SM TSRA BKN035CB
     FM010700 VRB03KT P6SM VCSH SCT015 BKN040
     FM011000 23003KT P6SM VCSH BKN050
     FM011400 27005KT P6SM SCT015 BKN040=



000
FTUS44 KHGX 312037 AAC
TAFSGR
TAF AMD
KSGR 312037Z 3121/0118 13009KT P6SM VCTS BKN040CB BKN060
      TEMPO 3121/0101 VRB10G25KT 4SM TSRA BKN035CB
     FM010700 VRB03KT P6SM VCSH SCT015 BKN040
     FM011000 23003KT P6SM VCSH BKN050
     FM011400 27005KT P6SM SCT015 BKN040=



000
FTUS44 KHGX 312035 AAA
TAFIAH
TAF AMD
KIAH 312035Z 3121/0124 VRB05KT P6SM VCSH SCT045 SCT120 BKN250
      TEMPO 3122/0102 VRB10G25KT 4SM TSRA BKN035CB
     FM011000 24003KT P6SM VCSH BKN050
     FM011400 27005KT P6SM SCT015 BKN040
     FM012100 30005KT P6SM VCSH BKN040=



000
FTUS44 KHGX 312033 AAB
TAFHOU
TAF AMD
KHOU 312033Z 3121/0118 23010KT P6SM VCTS SCT045CB BKN140
      TEMPO 3121/3123 VRB20KT 4SM TSRA BKN035CB
     FM010700 VRB03KT P6SM VCSH SCT015 BKN040
     FM011000 23003KT P6SM VCSH BKN050
     FM011400 27005KT P6SM SCT015 BKN040=



000
FTUS44 KHGX 312033 AAB
TAFHOU
TAF AMD
KHOU 312033Z 3121/0118 23010KT P6SM VCTS SCT045CB BKN140
      TEMPO 3121/3123 VRB20KT 4SM TSRA BKN035CB
     FM010700 VRB03KT P6SM VCSH SCT015 BKN040
     FM011000 23003KT P6SM VCSH BKN050
     FM011400 27005KT P6SM SCT015 BKN040=



000
FTUS44 KHGX 311935 AAA
TAFUTS
TAF AMD
KUTS 311935Z 3120/0118 22007KT P6SM VCSH SCT060
      TEMPO 3121/3124 5SM TSRA BKN035CB
     FM010900 VRB04KT P6SM FEW015 BKN040
     FM011500 28006KT P6SM SCT025 BKN180=



000
FTUS44 KHGX 311935 AAA
TAFUTS
TAF AMD
KUTS 311935Z 3120/0118 22007KT P6SM VCSH SCT060
      TEMPO 3121/3124 5SM TSRA BKN035CB
     FM010900 VRB04KT P6SM FEW015 BKN040
     FM011500 28006KT P6SM SCT025 BKN180=



000
FTUS44 KHGX 311935 AAA
TAFCXO
TAF AMD
KCXO 311935Z 3120/0118 00000KT P6SM VCSH SCT040 BKN120
      TEMPO 3122/0102 VRB10G25KT 4SM TSRA BKN035CB
     FM011000 24003KT P6SM VCSH SCT015 BKN050
      TEMPO 0110/0114 4SM BR
     FM011400 27005KT P6SM SCT020 BKN060=



000
FTUS44 KHGX 311935 AAA
TAFCXO
TAF AMD
KCXO 311935Z 3120/0118 00000KT P6SM VCSH SCT040 BKN120
      TEMPO 3122/0102 VRB10G25KT 4SM TSRA BKN035CB
     FM011000 24003KT P6SM VCSH SCT015 BKN050
      TEMPO 0110/0114 4SM BR
     FM011400 27005KT P6SM SCT020 BKN060=



000
FTUS44 KHGX 311934 AAA
TAFCLL
TAF AMD
KCLL 311934Z 3120/0118 23006KT P6SM VCSH SCT040
      TEMPO 3121/3124 5SM TSRA BKN035CB
     FM010200 VRB04KT P6SM BKN050
     FM010900 34004KT P6SM FEW015 BKN040
      TEMPO 0110/0114 4SM BR
     FM011500 33006KT P6SM SCT025 BKN180=



000
FTUS44 KHGX 311934 AAA
TAFCLL
TAF AMD
KCLL 311934Z 3120/0118 23006KT P6SM VCSH SCT040
      TEMPO 3121/3124 5SM TSRA BKN035CB
     FM010200 VRB04KT P6SM BKN050
     FM010900 34004KT P6SM FEW015 BKN040
      TEMPO 0110/0114 4SM BR
     FM011500 33006KT P6SM SCT025 BKN180=



000
FTUS44 KHGX 311857 AAA
TAFHOU
TAF AMD
KHOU 311857Z 3119/0118 22005KT P6SM VCTS SCT040CB BKN140 BKN250
      TEMPO 3119/3121 VRB20KT 5SM TSRA BKN035CB
     FM312200 18008KT P6SM VCTS BKN040CB
      TEMPO 0100/0104 VRB10G25KT 4SM TSRA BKN035CB
     FM010700 VRB03KT P6SM VCSH SCT015 BKN040
     FM011000 23003KT P6SM VCSH BKN050
     FM011400 27005KT P6SM SCT015 BKN040=



000
FTUS44 KHGX 311857 AAA
TAFHOU
TAF AMD
KHOU 311857Z 3119/0118 22005KT P6SM VCTS SCT040CB BKN140 BKN250
      TEMPO 3119/3121 VRB20KT 5SM TSRA BKN035CB
     FM312200 18008KT P6SM VCTS BKN040CB
      TEMPO 0100/0104 VRB10G25KT 4SM TSRA BKN035CB
     FM010700 VRB03KT P6SM VCSH SCT015 BKN040
     FM011000 23003KT P6SM VCSH BKN050
     FM011400 27005KT P6SM SCT015 BKN040=



000
FTUS44 KHGX 311856 AAB
TAFSGR
TAF AMD
KSGR 311856Z 3119/0118 20005KT P6SM VCTS SCT040CB BKN140 BKN250
      TEMPO 3119/3120 5SM TSRA BKN035CB
     FM312200 18008KT P6SM VCTS BKN040CB
      TEMPO 0100/0104 VRB10G25KT 4SM TSRA BKN035CB
     FM010700 VRB03KT P6SM VCSH SCT015 BKN040
     FM011000 23003KT P6SM VCSH BKN050
     FM011400 27005KT P6SM SCT015 BKN040=



000
FTUS44 KHGX 311856 AAB
TAFSGR
TAF AMD
KSGR 311856Z 3119/0118 20005KT P6SM VCTS SCT040CB BKN140 BKN250
      TEMPO 3119/3120 5SM TSRA BKN035CB
     FM312200 18008KT P6SM VCTS BKN040CB
      TEMPO 0100/0104 VRB10G25KT 4SM TSRA BKN035CB
     FM010700 VRB03KT P6SM VCSH SCT015 BKN040
     FM011000 23003KT P6SM VCSH BKN050
     FM011400 27005KT P6SM SCT015 BKN040=



000
FTUS44 KHGX 311821 AAA
TAFSGR
TAF AMD
KSGR 311821Z 3118/0118 20005KT P6SM SCT040 BKN140 BKN250
      TEMPO 3118/3119 5SM TSRA BKN035CB
     FM312200 18008KT P6SM VCTS BKN040CB
      TEMPO 0100/0104 VRB10G25KT 4SM TSRA BKN035CB
     FM010700 VRB03KT P6SM VCSH SCT015 BKN040
     FM011000 23003KT P6SM VCSH BKN050
     FM011400 27005KT P6SM SCT015 BKN040=



000
FTUS44 KHGX 311821 AAA
TAFSGR
TAF AMD
KSGR 311821Z 3118/0118 20005KT P6SM SCT040 BKN140 BKN250
      TEMPO 3118/3119 5SM TSRA BKN035CB
     FM312200 18008KT P6SM VCTS BKN040CB
      TEMPO 0100/0104 VRB10G25KT 4SM TSRA BKN035CB
     FM010700 VRB03KT P6SM VCSH SCT015 BKN040
     FM011000 23003KT P6SM VCSH BKN050
     FM011400 27005KT P6SM SCT015 BKN040=



000
FTUS44 KHGX 311720
TAFGLS
TAF
KGLS 311720Z 3118/0118 19013KT P6SM SCT030
     FM010000 21005KT P6SM VCTS SCT027CB BKN150
      TEMPO 0105/0109 4SM TSRA BKN030CB
     FM011500 25005KT P6SM SCT020 BKN060=



000
FTUS44 KHGX 311720
TAFCLL
TAF
KCLL 311720Z 3118/0118 22007KT P6SM VCSH BKN040 OVC120
      TEMPO 3119/3123 5SM TSRA BKN035CB
     FM010200 VRB04KT P6SM BKN050
     FM010900 34004KT P6SM FEW015 BKN040
      TEMPO 0110/0114 4SM BR
     FM011500 33006KT P6SM SCT025 BKN180=



000
FTUS44 KHGX 311720
TAFGLS
TAF
KGLS 311720Z 3118/0118 19013KT P6SM SCT030
     FM010000 21005KT P6SM VCTS SCT027CB BKN150
      TEMPO 0105/0109 4SM TSRA BKN030CB
     FM011500 25005KT P6SM SCT020 BKN060=



000
FTUS44 KHGX 311720
TAFUTS
TAF
KUTS 311720Z 3118/0118 20005KT P6SM VCSH BKN040 OVC120
      TEMPO 3119/3123 5SM TSRA BKN035CB
     FM010900 VRB04KT P6SM FEW015 BKN040
     FM011500 28006KT P6SM SCT025 BKN180=



000
FTUS44 KHGX 311720
TAFIAH
TAF
KIAH 311720Z 3118/0124 21004KT P6SM VCSH SCT040 SCT150 BKN200
     FM312100 17007KT P6SM VCTS BKN040CB
      TEMPO 3123/0103 VRB10G25KT 4SM TSRA BKN035CB
     FM011000 24003KT P6SM VCSH BKN050
     FM011400 27005KT P6SM SCT015 BKN040
     FM012100 30005KT P6SM VCSH BKN040=



000
FTUS44 KHGX 311720
TAFCXO
TAF
KCXO 311720Z 3118/0118 20004KT P6SM VCSH FEW021 SCT060
     FM312000 17004KT P6SM VCTS BKN040CB
      TEMPO 3122/0102 VRB10G25KT 4SM TSRA BKN035CB
     FM011000 24003KT P6SM VCSH SCT015 BKN050
      TEMPO 0110/0114 4SM BR
     FM011400 27005KT P6SM SCT020 BKN060=



000
FTUS44 KHGX 311720
TAFIAH
TAF
KIAH 311720Z 3118/0124 21004KT P6SM VCSH SCT040 SCT150 BKN200
     FM312100 17007KT P6SM VCTS BKN040CB
      TEMPO 3123/0103 VRB10G25KT 4SM TSRA BKN035CB
     FM011000 24003KT P6SM VCSH BKN050
     FM011400 27005KT P6SM SCT015 BKN040
     FM012100 30005KT P6SM VCSH BKN040=



000
FTUS44 KHGX 311720
TAFHOU
TAF
KHOU 311720Z 3118/0118 20005KT P6SM SCT040 BKN140 BKN250
     FM312200 18008KT P6SM VCTS BKN040CB
      TEMPO 0100/0104 VRB10G25KT 4SM TSRA BKN035CB
     FM010700 VRB03KT P6SM VCSH SCT015 BKN040
     FM011000 23003KT P6SM VCSH BKN050
     FM011400 27005KT P6SM SCT015 BKN040=



000
FTUS44 KHGX 311720
TAFLBX
TAF
KLBX 311720Z 3118/0118 20009KT P6SM BKN035
     FM312300 18008KT P6SM VCTS BKN040CB
      TEMPO 0103/0107 4SM TSRA BKN035CB
     FM011200 VRB03KT P6SM VCSH BKN050
     FM011500 27005KT P6SM SCT015 BKN040=



000
FTUS44 KHGX 311720
TAFCLL
TAF
KCLL 311720Z 3118/0118 22007KT P6SM VCSH BKN040 OVC120
      TEMPO 3119/3123 5SM TSRA BKN035CB
     FM010200 VRB04KT P6SM BKN050
     FM010900 34004KT P6SM FEW015 BKN040
      TEMPO 0110/0114 4SM BR
     FM011500 33006KT P6SM SCT025 BKN180=



000
FTUS44 KHGX 311720
TAFSGR
TAF
KSGR 311720Z 3118/0118 20005KT P6SM SCT040 BKN140 BKN250
     FM312200 18008KT P6SM VCTS BKN040CB
      TEMPO 0100/0104 VRB10G25KT 4SM TSRA BKN035CB
     FM010700 VRB03KT P6SM VCSH SCT015 BKN040
     FM011000 23003KT P6SM VCSH BKN050
     FM011400 27005KT P6SM SCT015 BKN040=



000
FTUS44 KHGX 311720
TAFHOU
TAF
KHOU 311720Z 3118/0118 20005KT P6SM SCT040 BKN140 BKN250
     FM312200 18008KT P6SM VCTS BKN040CB
      TEMPO 0100/0104 VRB10G25KT 4SM TSRA BKN035CB
     FM010700 VRB03KT P6SM VCSH SCT015 BKN040
     FM011000 23003KT P6SM VCSH BKN050
     FM011400 27005KT P6SM SCT015 BKN040=



000
FTUS44 KHGX 311720
TAFUTS
TAF
KUTS 311720Z 3118/0118 20005KT P6SM VCSH BKN040 OVC120
      TEMPO 3119/3123 5SM TSRA BKN035CB
     FM010900 VRB04KT P6SM FEW015 BKN040
     FM011500 28006KT P6SM SCT025 BKN180=



000
FTUS44 KHGX 311720
TAFSGR
TAF
KSGR 311720Z 3118/0118 20005KT P6SM SCT040 BKN140 BKN250
     FM312200 18008KT P6SM VCTS BKN040CB
      TEMPO 0100/0104 VRB10G25KT 4SM TSRA BKN035CB
     FM010700 VRB03KT P6SM VCSH SCT015 BKN040
     FM011000 23003KT P6SM VCSH BKN050
     FM011400 27005KT P6SM SCT015 BKN040=



000
FTUS44 KHGX 311720
TAFCXO
TAF
KCXO 311720Z 3118/0118 20004KT P6SM VCSH FEW021 SCT060
     FM312000 17004KT P6SM VCTS BKN040CB
      TEMPO 3122/0102 VRB10G25KT 4SM TSRA BKN035CB
     FM011000 24003KT P6SM VCSH SCT015 BKN050
      TEMPO 0110/0114 4SM BR
     FM011400 27005KT P6SM SCT020 BKN060=



000
FTUS44 KHGX 311720
TAFLBX
TAF
KLBX 311720Z 3118/0118 20009KT P6SM BKN035
     FM312300 18008KT P6SM VCTS BKN040CB
      TEMPO 0103/0107 4SM TSRA BKN035CB
     FM011200 VRB03KT P6SM VCSH BKN050
     FM011500 27005KT P6SM SCT015 BKN040=



000
FTUS44 KHGX 311527 AAA
TAFHOU
TAF AMD
KHOU 311527Z 3115/0112 20006KT P6SM FEW020 BKN170 BKN250
     FM312200 18008KT P6SM VCTS BKN040CB
      TEMPO 0100/0104 VRB10G25KT 4SM TSRA BKN035CB
     FM010700 VRB03KT P6SM VCSH SCT015 BKN040=



000
FTUS44 KHGX 311527 AAA
TAFIAH
TAF AMD
KIAH 311527Z 3115/0118 18006KT P6SM SCT025 BKN150 BKN220
     FM312100 17007KT P6SM VCTS BKN040CB
      TEMPO 3123/0103 VRB10G25KT 4SM TSRA BKN035CB
     FM010600 20005KT P6SM VCSH BKN050
     FM011500 29005KT P6SM SCT015 BKN040=



000
FTUS44 KHGX 311527 AAA
TAFHOU
TAF AMD
KHOU 311527Z 3115/0112 20006KT P6SM FEW020 BKN170 BKN250
     FM312200 18008KT P6SM VCTS BKN040CB
      TEMPO 0100/0104 VRB10G25KT 4SM TSRA BKN035CB
     FM010700 VRB03KT P6SM VCSH SCT015 BKN040=



000
FTUS44 KHGX 311527 AAA
TAFIAH
TAF AMD
KIAH 311527Z 3115/0118 18006KT P6SM SCT025 BKN150 BKN220
     FM312100 17007KT P6SM VCTS BKN040CB
      TEMPO 3123/0103 VRB10G25KT 4SM TSRA BKN035CB
     FM010600 20005KT P6SM VCSH BKN050
     FM011500 29005KT P6SM SCT015 BKN040=



000
FTUS44 KHGX 311120
TAFCLL
TAF
KCLL 311120Z 3112/0112 18006KT P6SM SCT020 SCT120
      TEMPO 3112/3113 -RA
     FM311500 21010KT P6SM SCT035 BKN150
     FM312000 27008KT P6SM VCTS BKN050CB
      TEMPO 3122/0102 VRB10G25KT 4SM TSRA BKN035CB
     FM010200 34005KT P6SM VCSH SCT015 BKN050=



000
FTUS44 KHGX 311120
TAFIAH
TAF
KIAH 311120Z 3112/0118 19005KT P6SM SCT022 BKN250
     FM311500 20006KT P6SM SCT035 SCT150
     FM312100 17007KT P6SM VCTS BKN050CB
      TEMPO 3121/0101 VRB10G25KT 4SM TSRA BKN035CB
     FM011200 30005KT P6SM VCSH SCT015 BKN040=



000
FTUS44 KHGX 311120
TAFGLS
TAF
KGLS 311120Z 3112/0112 19009KT P6SM SCT025
     FM010000 21005KT P6SM VCTS SCT015 BKN050CB
      TEMPO 0100/0104 TSRA BKN050CB=



000
FTUS44 KHGX 311120
TAFCXO
TAF
KCXO 311120Z 3112/0112 17002KT 6SM BR SCT019
     FM311500 20006KT P6SM SCT035 SCT150
     FM312100 22008KT P6SM VCTS BKN050CB
      TEMPO 3121/0101 VRB10G25KT 4SM TSRA BKN035CB
     FM010300 VRB03KT P6SM VCTS BKN050CB=



000
FTUS44 KHGX 311120
TAFHOU
TAF
KHOU 311120Z 3112/0112 20004KT P6SM SCT050
     FM311500 20006KT P6SM SCT035 SCT150
     FM312200 18008KT P6SM VCTS BKN050CB
      TEMPO 3122/0102 VRB10G25KT 4SM TSRA BKN035CB
     FM010600 VRB03KT P6SM VCTS SCT015 BKN050CB=



000
FTUS44 KHGX 311120
TAFLBX
TAF
KLBX 311120Z 3112/0112 18004KT P6SM SCT015 SCT150
     FM311500 20007KT P6SM SCT025 SCT150
     FM312200 18008KT P6SM VCTS BKN050CB
     FM010200 21005KT P6SM VCTS SCT015 BKN050CB=



000
FTUS44 KHGX 311120
TAFLBX
TAF
KLBX 311120Z 3112/0112 18004KT P6SM SCT015 SCT150
     FM311500 20007KT P6SM SCT025 SCT150
     FM312200 18008KT P6SM VCTS BKN050CB
     FM010200 21005KT P6SM VCTS SCT015 BKN050CB=



000
FTUS44 KHGX 311120
TAFIAH
TAF
KIAH 311120Z 3112/0118 19005KT P6SM SCT022 BKN250
     FM311500 20006KT P6SM SCT035 SCT150
     FM312100 17007KT P6SM VCTS BKN050CB
      TEMPO 3121/0101 VRB10G25KT 4SM TSRA BKN035CB
     FM011200 30005KT P6SM VCSH SCT015 BKN040=



000
FTUS44 KHGX 311120
TAFSGR
TAF
KSGR 311120Z 3112/0112 20007KT P6SM SCT250
     FM311500 20006KT P6SM SCT035 SCT150
     FM312200 18008KT P6SM VCTS BKN050CB
      TEMPO 3122/0102 VRB10G25KT 4SM TSRA BKN035CB
     FM010600 VRB03KT P6SM VCTS SCT015 BKN050CB=



000
FTUS44 KHGX 311120
TAFSGR
TAF
KSGR 311120Z 3112/0112 20007KT P6SM SCT250
     FM311500 20006KT P6SM SCT035 SCT150
     FM312200 18008KT P6SM VCTS BKN050CB
      TEMPO 3122/0102 VRB10G25KT 4SM TSRA BKN035CB
     FM010600 VRB03KT P6SM VCTS SCT015 BKN050CB=



000
FTUS44 KHGX 311120
TAFUTS
TAF
KUTS 311120Z 3112/0112 18003KT P6SM SCT018 SCT024 SCT030
      TEMPO 3112/3115 -SHRA BKN024
     FM311500 20007KT P6SM SCT035 SCT150
     FM312000 24008KT P6SM VCTS BKN050CB
      TEMPO 3122/0102 VRB10G25KT 4SM TSRA BKN035CB
     FM010200 VRB03KT P6SM VCSH SCT015 BKN050=



000
FTUS44 KHGX 311120
TAFCLL
TAF
KCLL 311120Z 3112/0112 18006KT P6SM SCT020 SCT120
      TEMPO 3112/3113 -RA
     FM311500 21010KT P6SM SCT035 BKN150
     FM312000 27008KT P6SM VCTS BKN050CB
      TEMPO 3122/0102 VRB10G25KT 4SM TSRA BKN035CB
     FM010200 34005KT P6SM VCSH SCT015 BKN050=



000
FTUS44 KHGX 311120
TAFCXO
TAF
KCXO 311120Z 3112/0112 17002KT 6SM BR SCT019
     FM311500 20006KT P6SM SCT035 SCT150
     FM312100 22008KT P6SM VCTS BKN050CB
      TEMPO 3121/0101 VRB10G25KT 4SM TSRA BKN035CB
     FM010300 VRB03KT P6SM VCTS BKN050CB=



000
FTUS44 KHGX 311120
TAFHOU
TAF
KHOU 311120Z 3112/0112 20004KT P6SM SCT050
     FM311500 20006KT P6SM SCT035 SCT150
     FM312200 18008KT P6SM VCTS BKN050CB
      TEMPO 3122/0102 VRB10G25KT 4SM TSRA BKN035CB
     FM010600 VRB03KT P6SM VCTS SCT015 BKN050CB=



000
FTUS44 KHGX 311120
TAFUTS
TAF
KUTS 311120Z 3112/0112 18003KT P6SM SCT018 SCT024 SCT030
      TEMPO 3112/3115 -SHRA BKN024
     FM311500 20007KT P6SM SCT035 SCT150
     FM312000 24008KT P6SM VCTS BKN050CB
      TEMPO 3122/0102 VRB10G25KT 4SM TSRA BKN035CB
     FM010200 VRB03KT P6SM VCSH SCT015 BKN050=



000
FTUS44 KHGX 310859 AAA
TAFHOU
TAF AMD
KHOU 310859Z 3109/0106 18003KT P6SM SCT022 BKN040
     FM311500 20006KT P6SM SCT035 SCT150
     FM312200 18008KT P6SM VCTS BKN050CB
      TEMPO 3122/0102 VRB10G25KT 4SM TSRA BKN035CB
     FM010200 21005KT P6SM VCTS SCT015 BKN050CB=



000
FTUS44 KHGX 310859 AAA
TAFHOU
TAF AMD
KHOU 310859Z 3109/0106 18003KT P6SM SCT022 BKN040
     FM311500 20006KT P6SM SCT035 SCT150
     FM312200 18008KT P6SM VCTS BKN050CB
      TEMPO 3122/0102 VRB10G25KT 4SM TSRA BKN035CB
     FM010200 21005KT P6SM VCTS SCT015 BKN050CB=



000
FTUS44 KHGX 310858 AAA
TAFIAH
TAF AMD
KIAH 310858Z 3109/0112 18003KT P6SM FEW026 SCT250
     FM311500 20006KT P6SM SCT035 SCT150
     FM312200 19008KT P6SM VCTS BKN050CB
      TEMPO 3122/0102 VRB10G25KT 4SM TSRA BKN035CB
     FM010200 32005KT P6SM VCTS SCT015 BKN050CB=



000
FTUS44 KHGX 310804 AAA
TAFGLS
TAF AMD
KGLS 310804Z 3108/0106 14012KT P6SM VCTS SCT030CB
      TEMPO 3108/3110 5SM TSRA BR BKN025CB
     FM311000 18008KT P6SM SCT020 BKN150
     FM010000 21005KT P6SM VCTS SCT015 BKN050CB PROB30 0100/0106
      TSRA BKN050CB=



000
FTUS44 KHGX 310804 AAA
TAFGLS
TAF AMD
KGLS 310804Z 3108/0106 14012KT P6SM VCTS SCT030CB
      TEMPO 3108/3110 5SM TSRA BR BKN025CB
     FM311000 18008KT P6SM SCT020 BKN150
     FM010000 21005KT P6SM VCTS SCT015 BKN050CB PROB30 0100/0106
      TSRA BKN050CB=



000
FTUS44 KHGX 310520
TAFGLS
TAF
KGLS 310520Z 3106/0106 14012KT P6SM SCT030
     FM310900 18008KT P6SM SCT020 BKN150
     FM010000 21005KT P6SM VCTS SCT015 BKN050CB PROB30 0100/0106
      TSRA BKN050CB=



000
FTUS44 KHGX 310520
TAFHOU
TAF
KHOU 310520Z 3106/0106 14006KT P6SM FEW020 SCT250
     FM311000 17002KT P6SM SCT012 SCT150
     FM311500 20006KT P6SM SCT035 SCT150
     FM312200 18008KT P6SM VCTS BKN050CB
      TEMPO 3122/0102 VRB10G25KT 4SM TSRA BKN035CB
     FM010200 21005KT P6SM VCTS SCT015 BKN050CB=



000
FTUS44 KHGX 310520
TAFIAH
TAF
KIAH 310520Z 3106/0112 16006KT P6SM SCT250
     FM311000 17002KT P6SM SCT012 SCT150
     FM311500 20006KT P6SM SCT035 SCT150
     FM312200 19008KT P6SM VCTS BKN050CB
      TEMPO 3122/0102 VRB10G25KT 4SM TSRA BKN035CB
     FM010200 32005KT P6SM VCTS SCT015 BKN050CB=



000
FTUS44 KHGX 310520
TAFCLL
TAF
KCLL 310520Z 3106/0106 14009KT P6SM SCT050 SCT250
     FM310900 17006KT P6SM SCT015 BKN150
     FM311500 21010KT P6SM SCT035 BKN150
     FM312000 27008KT P6SM VCTS BKN050CB
      TEMPO 3122/0102 VRB10G25KT 4SM TSRA BKN035CB
     FM010200 34005KT P6SM VCSH SCT015 BKN050=



000
FTUS44 KHGX 310520
TAFLBX
TAF
KLBX 310520Z 3106/0106 15006KT P6SM SCT250
     FM310800 15002KT P6SM SCT015 SCT150
     FM311500 20006KT P6SM SCT025 SCT150
     FM312200 18008KT P6SM VCTS BKN050CB
     FM010200 21005KT P6SM VCTS SCT015 BKN050CB=



000
FTUS44 KHGX 310520
TAFCXO
TAF
KCXO 310520Z 3106/0106 VRB05KT P6SM SCT250
     FM311000 17002KT P6SM SCT015 SCT150
     FM311500 20006KT P6SM SCT035 SCT150
     FM312100 22008KT P6SM VCTS BKN050CB
      TEMPO 3122/0102 VRB10G25KT 4SM TSRA BKN035CB
     FM010200 32005KT P6SM VCTS BKN050CB=



000
FTUS44 KHGX 310520
TAFUTS
TAF
KUTS 310520Z 3106/0106 VRB04KT P6SM SCT250
     FM311000 18003KT P6SM SCT015 SCT150
     FM311500 20006KT P6SM SCT035 SCT150
     FM312000 24008KT P6SM VCTS BKN050CB
      TEMPO 3122/0102 VRB10G25KT 4SM TSRA BKN035CB
     FM010200 32005KT P6SM VCSH SCT015 BKN050=



000
FTUS44 KHGX 310520
TAFSGR
TAF
KSGR 310520Z 3106/0106 14007KT P6SM SCT250
     FM311000 16002KT P6SM SCT012 SCT150
     FM311500 20006KT P6SM SCT035 SCT150
     FM312200 18008KT P6SM VCTS BKN050CB
      TEMPO 3122/0102 VRB10G25KT 4SM TSRA BKN035CB
     FM010200 21005KT P6SM VCTS SCT015 BKN050CB=



000
FTUS44 KHGX 310520
TAFLBX
TAF
KLBX 310520Z 3106/0106 15006KT P6SM SCT250
     FM310800 15002KT P6SM SCT015 SCT150
     FM311500 20006KT P6SM SCT025 SCT150
     FM312200 18008KT P6SM VCTS BKN050CB
     FM010200 21005KT P6SM VCTS SCT015 BKN050CB=



000
FTUS44 KHGX 310520
TAFIAH
TAF
KIAH 310520Z 3106/0112 16006KT P6SM SCT250
     FM311000 17002KT P6SM SCT012 SCT150
     FM311500 20006KT P6SM SCT035 SCT150
     FM312200 19008KT P6SM VCTS BKN050CB
      TEMPO 3122/0102 VRB10G25KT 4SM TSRA BKN035CB
     FM010200 32005KT P6SM VCTS SCT015 BKN050CB=



000
FTUS44 KHGX 310520
TAFUTS
TAF
KUTS 310520Z 3106/0106 VRB04KT P6SM SCT250
     FM311000 18003KT P6SM SCT015 SCT150
     FM311500 20006KT P6SM SCT035 SCT150
     FM312000 24008KT P6SM VCTS BKN050CB
      TEMPO 3122/0102 VRB10G25KT 4SM TSRA BKN035CB
     FM010200 32005KT P6SM VCSH SCT015 BKN050=



000
FTUS44 KHGX 310520
TAFCXO
TAF
KCXO 310520Z 3106/0106 VRB05KT P6SM SCT250
     FM311000 17002KT P6SM SCT015 SCT150
     FM311500 20006KT P6SM SCT035 SCT150
     FM312100 22008KT P6SM VCTS BKN050CB
      TEMPO 3122/0102 VRB10G25KT 4SM TSRA BKN035CB
     FM010200 32005KT P6SM VCTS BKN050CB=



000
FTUS44 KHGX 310520
TAFGLS
TAF
KGLS 310520Z 3106/0106 14012KT P6SM SCT030
     FM310900 18008KT P6SM SCT020 BKN150
     FM010000 21005KT P6SM VCTS SCT015 BKN050CB PROB30 0100/0106
      TSRA BKN050CB=



000
FTUS44 KHGX 310520
TAFHOU
TAF
KHOU 310520Z 3106/0106 14006KT P6SM FEW020 SCT250
     FM311000 17002KT P6SM SCT012 SCT150
     FM311500 20006KT P6SM SCT035 SCT150
     FM312200 18008KT P6SM VCTS BKN050CB
      TEMPO 3122/0102 VRB10G25KT 4SM TSRA BKN035CB
     FM010200 21005KT P6SM VCTS SCT015 BKN050CB=



000
FTUS44 KHGX 310520
TAFSGR
TAF
KSGR 310520Z 3106/0106 14007KT P6SM SCT250
     FM311000 16002KT P6SM SCT012 SCT150
     FM311500 20006KT P6SM SCT035 SCT150
     FM312200 18008KT P6SM VCTS BKN050CB
      TEMPO 3122/0102 VRB10G25KT 4SM TSRA BKN035CB
     FM010200 21005KT P6SM VCTS SCT015 BKN050CB=



000
FTUS44 KHGX 310520
TAFCLL
TAF
KCLL 310520Z 3106/0106 14009KT P6SM SCT050 SCT250
     FM310900 17006KT P6SM SCT015 BKN150
     FM311500 21010KT P6SM SCT035 BKN150
     FM312000 27008KT P6SM VCTS BKN050CB
      TEMPO 3122/0102 VRB10G25KT 4SM TSRA BKN035CB
     FM010200 34005KT P6SM VCSH SCT015 BKN050=



000
FTUS44 KHGX 310307 AAA
TAFIAH
TAF AMD
KIAH 310307Z 3103/0106 14006KT P6SM SCT250
     FM311000 16002KT P6SM SCT012 SCT150
     FM311500 20006KT P6SM SCT035 SCT150
     FM312200 18008KT P6SM VCTS BKN050CB PROB30 0102/0106 TSRA=



000
FTUS44 KHGX 310307 AAA
TAFHOU
TAF AMD
KHOU 310307Z 3103/3124 14006KT P6SM SCT250
     FM311000 16002KT P6SM SCT012 SCT150
     FM311500 20006KT P6SM SCT035 SCT150
     FM312200 18008KT P6SM VCTS BKN050CB=



000
FTUS44 KHGX 310307 AAA
TAFHOU
TAF AMD
KHOU 310307Z 3103/3124 14006KT P6SM SCT250
     FM311000 16002KT P6SM SCT012 SCT150
     FM311500 20006KT P6SM SCT035 SCT150
     FM312200 18008KT P6SM VCTS BKN050CB=



000
FTUS44 KHGX 302323
TAFCXO
TAF
KCXO 302323Z 3100/3124 VRB05KT P6SM SCT250
     FM311000 16002KT P6SM SCT015 SCT150
     FM311500 20006KT P6SM SCT035 SCT150
     FM312100 22008KT P6SM VCTS BKN050CB PROB30 3121/3124 TSRA=



000
FTUS44 KHGX 302323
TAFGLS
TAF
KGLS 302323Z 3100/3124 12010KT P6SM SCT030
     FM310900 18008KT P6SM SCT020 BKN150=



000
FTUS44 KHGX 302323
TAFUTS
TAF
KUTS 302323Z 3100/3124 VRB04KT P6SM SCT250
     FM311000 18003KT P6SM SCT015 SCT150
     FM311500 20006KT P6SM SCT035 SCT150
     FM312000 24008KT P6SM VCTS BKN050CB PROB30 3120/3124 TSRA=



000
FTUS44 KHGX 302323
TAFLBX
TAF
KLBX 302323Z 3100/3124 13010KT P6SM SCT040 SCT250
     FM310200 15003KT P6SM SCT250
     FM310800 15002KT P6SM SCT015 SCT150
     FM311500 20006KT P6SM SCT025 SCT150
     FM312200 18008KT P6SM VCTS BKN050CB=



000
FTUS44 KHGX 302323
TAFSGR
TAF
KSGR 302323Z 3100/3124 12010KT P6SM SCT050 SCT250
     FM310200 14005KT P6SM SCT250
     FM311000 16002KT P6SM SCT012 SCT150
     FM311500 20006KT P6SM SCT035 SCT150
     FM312200 18008KT P6SM VCTS BKN050CB=



000
FTUS44 KHGX 302323
TAFIAH
TAF
KIAH 302323Z 3100/0106 14010KT P6SM SCT050 SCT250
     FM310200 14005KT P6SM SCT250
     FM311000 16002KT P6SM SCT012 SCT150
     FM311500 20006KT P6SM SCT035 SCT150
     FM312200 18008KT P6SM VCTS BKN050CB PROB30 0102/0106 TSRA=



000
FTUS44 KHGX 302323
TAFHOU
TAF
KHOU 302323Z 3100/3124 12012KT P6SM SCT040 BKN250
     FM310200 14005KT P6SM SCT250
     FM311000 16002KT P6SM SCT012 SCT150
     FM311500 20006KT P6SM SCT035 SCT150
     FM312200 18008KT P6SM VCTS BKN050CB=



000
FTUS44 KHGX 302323
TAFCLL
TAF
KCLL 302323Z 3100/3124 14011KT P6SM FEW050 SCT250
     FM310900 17006KT P6SM SCT015 BKN150
     FM311500 21010KT P6SM SCT035 BKN150
     FM312000 24008KT P6SM VCTS BKN050CB PROB30 3120/3124 TSRA=



000
FTUS44 KHGX 302323
TAFGLS
TAF
KGLS 302323Z 3100/3124 12010KT P6SM SCT030
     FM310900 18008KT P6SM SCT020 BKN150=



000
FTUS44 KHGX 302323
TAFHOU
TAF
KHOU 302323Z 3100/3124 12012KT P6SM SCT040 BKN250
     FM310200 14005KT P6SM SCT250
     FM311000 16002KT P6SM SCT012 SCT150
     FM311500 20006KT P6SM SCT035 SCT150
     FM312200 18008KT P6SM VCTS BKN050CB=



000
FTUS44 KHGX 302323
TAFSGR
TAF
KSGR 302323Z 3100/3124 12010KT P6SM SCT050 SCT250
     FM310200 14005KT P6SM SCT250
     FM311000 16002KT P6SM SCT012 SCT150
     FM311500 20006KT P6SM SCT035 SCT150
     FM312200 18008KT P6SM VCTS BKN050CB=



000
FTUS44 KHGX 302323
TAFCXO
TAF
KCXO 302323Z 3100/3124 VRB05KT P6SM SCT250
     FM311000 16002KT P6SM SCT015 SCT150
     FM311500 20006KT P6SM SCT035 SCT150
     FM312100 22008KT P6SM VCTS BKN050CB PROB30 3121/3124 TSRA=



000
FTUS44 KHGX 302323
TAFIAH
TAF
KIAH 302323Z 3100/0106 14010KT P6SM SCT050 SCT250
     FM310200 14005KT P6SM SCT250
     FM311000 16002KT P6SM SCT012 SCT150
     FM311500 20006KT P6SM SCT035 SCT150
     FM312200 18008KT P6SM VCTS BKN050CB PROB30 0102/0106 TSRA=



000
FTUS44 KHGX 302323
TAFLBX
TAF
KLBX 302323Z 3100/3124 13010KT P6SM SCT040 SCT250
     FM310200 15003KT P6SM SCT250
     FM310800 15002KT P6SM SCT015 SCT150
     FM311500 20006KT P6SM SCT025 SCT150
     FM312200 18008KT P6SM VCTS BKN050CB=



000
FTUS44 KHGX 302323
TAFUTS
TAF
KUTS 302323Z 3100/3124 VRB04KT P6SM SCT250
     FM311000 18003KT P6SM SCT015 SCT150
     FM311500 20006KT P6SM SCT035 SCT150
     FM312000 24008KT P6SM VCTS BKN050CB PROB30 3120/3124 TSRA=



000
FTUS44 KHGX 302323
TAFCLL
TAF
KCLL 302323Z 3100/3124 14011KT P6SM FEW050 SCT250
     FM310900 17006KT P6SM SCT015 BKN150
     FM311500 21010KT P6SM SCT035 BKN150
     FM312000 24008KT P6SM VCTS BKN050CB PROB30 3120/3124 TSRA=



000
FTUS44 KHGX 302159 AAB
TAFHOU
TAF AMD
KHOU 302159Z 3022/3118 12012KT P6SM SCT040 BKN250
     FM310200 14005KT P6SM SCT250
     FM311000 15002KT P6SM SCT020 SCT150
     FM311500 20006KT P6SM SCT025 SCT150
     FM311700 19006KT P6SM SCT035 BKN150=



000
FTUS44 KHGX 302159 AAB
TAFHOU
TAF AMD
KHOU 302159Z 3022/3118 12012KT P6SM SCT040 BKN250
     FM310200 14005KT P6SM SCT250
     FM311000 15002KT P6SM SCT020 SCT150
     FM311500 20006KT P6SM SCT025 SCT150
     FM311700 19006KT P6SM SCT035 BKN150=



000
FTUS44 KHGX 302038 AAA
TAFIAH
TAF AMD
KIAH 302038Z 3021/3124 13006KT P6SM SCT050 BKN250
     FM302200 14010KT P6SM SCT050 SCT250
     FM310200 14005KT P6SM SCT250
     FM311000 16002KT P6SM SCT020 SCT150
     FM311500 19006KT P6SM SCT025 SCT150
     FM311700 20006KT P6SM SCT035 BKN150
     FM312000 18008KT P6SM VCTS BKN050CB PROB30 3120/3124 TSRA=



000
FTUS44 KHGX 302038 AAA
TAFHOU
TAF AMD
KHOU 302038Z 3021/3118 14010KT P6SM SCT040 BKN250
     FM310200 14005KT P6SM SCT250
     FM311000 15002KT P6SM SCT020 SCT150
     FM311500 20006KT P6SM SCT025 SCT150
     FM311700 19006KT P6SM SCT035 BKN150=



000
FTUS44 KHGX 302038 AAA
TAFHOU
TAF AMD
KHOU 302038Z 3021/3118 14010KT P6SM SCT040 BKN250
     FM310200 14005KT P6SM SCT250
     FM311000 15002KT P6SM SCT020 SCT150
     FM311500 20006KT P6SM SCT025 SCT150
     FM311700 19006KT P6SM SCT035 BKN150=



000
FTUS44 KHGX 302038 AAA
TAFIAH
TAF AMD
KIAH 302038Z 3021/3124 13006KT P6SM SCT050 BKN250
     FM302200 14010KT P6SM SCT050 SCT250
     FM310200 14005KT P6SM SCT250
     FM311000 16002KT P6SM SCT020 SCT150
     FM311500 19006KT P6SM SCT025 SCT150
     FM311700 20006KT P6SM SCT035 BKN150
     FM312000 18008KT P6SM VCTS BKN050CB PROB30 3120/3124 TSRA=



000
FTUS44 KHGX 301724
TAFCLL
TAF
KCLL 301724Z 3018/3118 16009KT P6SM SCT040 SCT250
     FM302300 15011KT P6SM FEW050 SCT250
     FM310900 17006KT P6SM SCT015 BKN150
     FM311500 21010KT P6SM SCT025 BKN150
     FM311700 21006KT P6SM VCTS SCT035CB BKN130=



000
FTUS44 KHGX 301724
TAFHOU
TAF
KHOU 301724Z 3018/3118 14007KT P6SM SCT040 SCT250
     FM302200 14010KT P6SM SCT050 SCT250
     FM310200 14005KT P6SM SCT250
     FM311000 15002KT P6SM SCT020 SCT150
     FM311500 20006KT P6SM SCT025 SCT150
     FM311700 19006KT P6SM SCT035 BKN150=



000
FTUS44 KHGX 301724
TAFUTS
TAF
KUTS 301724Z 3018/3118 17005KT P6SM SCT040 SCT250
     FM310200 15005KT P6SM SCT250
     FM311000 18003KT P6SM SCT015 SCT150
     FM311500 20006KT P6SM SCT025 SCT150
     FM311700 21006KT P6SM VCTS SCT035CB BKN150=



000
FTUS44 KHGX 301724
TAFGLS
TAF
KGLS 301724Z 3018/3118 14009KT P6SM SCT030
     FM310900 18008KT P6SM SCT015 BKN150
     FM311500 20009KT P6SM SCT025 BKN150=



000
FTUS44 KHGX 301724
TAFSGR
TAF
KSGR 301724Z 3018/3118 15007KT P6SM SCT040 SCT250
     FM302200 14010KT P6SM SCT050 SCT250
     FM310200 14005KT P6SM SCT250
     FM311000 15002KT P6SM SCT020 SCT150
     FM311500 20006KT P6SM SCT025 SCT150
     FM311700 19006KT P6SM SCT035 BKN150=



000
FTUS44 KHGX 301724
TAFLBX
TAF
KLBX 301724Z 3018/3118 17007KT P6SM SCT030
      TEMPO 3018/3019 BKN027
     FM302100 16010KT P6SM SCT040 SCT250
     FM310200 15003KT P6SM SCT250
     FM310800 15002KT P6SM SCT015 SCT150
     FM311500 20006KT P6SM SCT025 SCT150
     FM311700 19006KT P6SM SCT035 BKN150=



000
FTUS44 KHGX 301724
TAFCLL
TAF
KCLL 301724Z 3018/3118 16009KT P6SM SCT040 SCT250
     FM302300 15011KT P6SM FEW050 SCT250
     FM310900 17006KT P6SM SCT015 BKN150
     FM311500 21010KT P6SM SCT025 BKN150
     FM311700 21006KT P6SM VCTS SCT035CB BKN130=



000
FTUS44 KHGX 301724
TAFGLS
TAF
KGLS 301724Z 3018/3118 14009KT P6SM SCT030
     FM310900 18008KT P6SM SCT015 BKN150
     FM311500 20009KT P6SM SCT025 BKN150=



000
FTUS44 KHGX 301724
TAFIAH
TAF
KIAH 301724Z 3018/3124 13009KT P6SM SCT040 SCT250
     FM302200 14010KT P6SM SCT050 SCT250
     FM310200 14005KT P6SM SCT250
     FM311000 16002KT P6SM SCT020 SCT150
     FM311500 19006KT P6SM SCT025 SCT150
     FM311700 20006KT P6SM SCT035 BKN150
     FM312000 18008KT P6SM VCTS BKN050CB PROB30 3120/3124 TSRA=



000
FTUS44 KHGX 301724
TAFUTS
TAF
KUTS 301724Z 3018/3118 17005KT P6SM SCT040 SCT250
     FM310200 15005KT P6SM SCT250
     FM311000 18003KT P6SM SCT015 SCT150
     FM311500 20006KT P6SM SCT025 SCT150
     FM311700 21006KT P6SM VCTS SCT035CB BKN150=



000
FTUS44 KHGX 301724
TAFHOU
TAF
KHOU 301724Z 3018/3118 14007KT P6SM SCT040 SCT250
     FM302200 14010KT P6SM SCT050 SCT250
     FM310200 14005KT P6SM SCT250
     FM311000 15002KT P6SM SCT020 SCT150
     FM311500 20006KT P6SM SCT025 SCT150
     FM311700 19006KT P6SM SCT035 BKN150=



000
FTUS44 KHGX 301724
TAFCXO
TAF
KCXO 301724Z 3018/3118 13007KT P6SM SCT040 SCT250
     FM310200 15005KT P6SM SCT250
     FM311000 16002KT P6SM SCT015 SCT150
     FM311500 20006KT P6SM SCT025 SCT150
     FM311700 20006KT P6SM SCT035 BKN150=



000
FTUS44 KHGX 301724
TAFIAH
TAF
KIAH 301724Z 3018/3124 13009KT P6SM SCT040 SCT250
     FM302200 14010KT P6SM SCT050 SCT250
     FM310200 14005KT P6SM SCT250
     FM311000 16002KT P6SM SCT020 SCT150
     FM311500 19006KT P6SM SCT025 SCT150
     FM311700 20006KT P6SM SCT035 BKN150
     FM312000 18008KT P6SM VCTS BKN050CB PROB30 3120/3124 TSRA=



000
FTUS44 KHGX 301724
TAFSGR
TAF
KSGR 301724Z 3018/3118 15007KT P6SM SCT040 SCT250
     FM302200 14010KT P6SM SCT050 SCT250
     FM310200 14005KT P6SM SCT250
     FM311000 15002KT P6SM SCT020 SCT150
     FM311500 20006KT P6SM SCT025 SCT150
     FM311700 19006KT P6SM SCT035 BKN150=



000
FTUS44 KHGX 301724
TAFCXO
TAF
KCXO 301724Z 3018/3118 13007KT P6SM SCT040 SCT250
     FM310200 15005KT P6SM SCT250
     FM311000 16002KT P6SM SCT015 SCT150
     FM311500 20006KT P6SM SCT025 SCT150
     FM311700 20006KT P6SM SCT035 BKN150=



000
FTUS44 KHGX 301724
TAFLBX
TAF
KLBX 301724Z 3018/3118 17007KT P6SM SCT030
      TEMPO 3018/3019 BKN027
     FM302100 16010KT P6SM SCT040 SCT250
     FM310200 15003KT P6SM SCT250
     FM310800 15002KT P6SM SCT015 SCT150
     FM311500 20006KT P6SM SCT025 SCT150
     FM311700 19006KT P6SM SCT035 BKN150=



000
FTUS44 KHGX 301547 AAA
TAFSGR
TAF AMD
KSGR 301547Z 3016/3112 18005KT P6SM VCSH SCT027
      TEMPO 3016/3017 VRB25KT 4SM TSRA BKN027CB
     FM301800 13007KT P6SM SCT040 SCT250
     FM302200 14010KT P6SM SCT050 SCT250
     FM310200 14005KT P6SM SCT250
     FM311000 15002KT P6SM SCT020 SCT150=



000
FTUS44 KHGX 301547 AAA
TAFSGR
TAF AMD
KSGR 301547Z 3016/3112 18005KT P6SM VCSH SCT027
      TEMPO 3016/3017 VRB25KT 4SM TSRA BKN027CB
     FM301800 13007KT P6SM SCT040 SCT250
     FM302200 14010KT P6SM SCT050 SCT250
     FM310200 14005KT P6SM SCT250
     FM311000 15002KT P6SM SCT020 SCT150=



000
FTUS44 KHGX 301520 AAA
TAFIAH
TAF AMD
KIAH 301520Z 3015/3118 14006KT P6SM FEW027 SCT050 BKN250
     FM301800 13007KT P6SM SCT040 SCT250
     FM302200 14010KT P6SM SCT050 SCT250
     FM310200 14005KT P6SM SCT250
     FM311000 16002KT P6SM SCT020 SCT150
     FM311500 19006KT P6SM SCT025 SCT150
     FM311700 20006KT P6SM SCT035 BKN150=



000
FTUS44 KHGX 301520 AAA
TAFIAH
TAF AMD
KIAH 301520Z 3015/3118 14006KT P6SM FEW027 SCT050 BKN250
     FM301800 13007KT P6SM SCT040 SCT250
     FM302200 14010KT P6SM SCT050 SCT250
     FM310200 14005KT P6SM SCT250
     FM311000 16002KT P6SM SCT020 SCT150
     FM311500 19006KT P6SM SCT025 SCT150
     FM311700 20006KT P6SM SCT035 BKN150=



000
FTUS44 KHGX 301520 AAA
TAFHOU
TAF AMD
KHOU 301520Z 3015/3112 14005KT P6SM FEW025 SCT250
     FM301800 13007KT P6SM SCT040 SCT250
     FM302200 14010KT P6SM SCT050 SCT250
     FM310200 14005KT P6SM SCT250
     FM311000 15002KT P6SM SCT020 SCT150=



000
FTUS44 KHGX 301520 AAA
TAFHOU
TAF AMD
KHOU 301520Z 3015/3112 14005KT P6SM FEW025 SCT250
     FM301800 13007KT P6SM SCT040 SCT250
     FM302200 14010KT P6SM SCT050 SCT250
     FM310200 14005KT P6SM SCT250
     FM311000 15002KT P6SM SCT020 SCT150=



000
FTUS44 KHGX 301120
TAFUTS
TAF
KUTS 301120Z 3012/3112 17005KT P6SM SCT050
     FM310200 17004KT P6SM SCT250=



000
FTUS44 KHGX 301120
TAFHOU
TAF
KHOU 301120Z 3012/3112 VRB03KT P6SM FEW018 SCT050
     FM301500 16007KT P6SM SCT050
     FM310200 VRB04KT P6SM SCT250=



000
FTUS44 KHGX 301120
TAFUTS
TAF
KUTS 301120Z 3012/3112 17005KT P6SM SCT050
     FM310200 17004KT P6SM SCT250=



000
FTUS44 KHGX 301120
TAFSGR
TAF
KSGR 301120Z 3012/3112 VRB04KT P6SM FEW040
      TEMPO 3012/3015 3SM BR
     FM301500 16007KT P6SM SCT040
     FM310200 VRB04KT P6SM SCT250=



000
FTUS44 KHGX 301120
TAFCXO
TAF
KCXO 301120Z 3012/3112 VRB03KT P6SM SCT100
      TEMPO 3012/3014 5SM BR
     FM301400 15006KT P6SM SCT040
     FM310200 VRB04KT P6SM SCT250
     FM310900 VRB03KT 5SM BR SCT250=



000
FTUS44 KHGX 301120
TAFGLS
TAF
KGLS 301120Z 3012/3112 11005KT P6SM VCSH SCT030
     FM301500 15009KT P6SM FEW050
     FM310200 17008KT P6SM SCT250=



000
FTUS44 KHGX 301120
TAFIAH
TAF
KIAH 301120Z 3012/3118 VRB03KT P6SM FEW250
     FM301500 15007KT P6SM SCT050
     FM310200 VRB04KT P6SM SCT250
     FM311500 18006KT P6SM FEW030=



000
FTUS44 KHGX 301120
TAFCLL
TAF
KCLL 301120Z 3012/3112 17004KT P6SM SCT250
     FM301500 17009KT P6SM SCT050
     FM310200 16008KT P6SM SCT250
     FM310900 16008KT P6SM SCT015=



000
FTUS44 KHGX 301120
TAFSGR
TAF
KSGR 301120Z 3012/3112 VRB04KT P6SM FEW040
      TEMPO 3012/3015 3SM BR
     FM301500 16007KT P6SM SCT040
     FM310200 VRB04KT P6SM SCT250=



000
FTUS44 KHGX 301120
TAFLBX
TAF
KLBX 301120Z 3012/3112 VRB04KT P6SM SCT018 SCT024 BKN035
      TEMPO 3012/3015 5SM BR BKN018 BKN024
     FM301500 16007KT P6SM VCSH SCT040
     FM310200 VRB04KT P6SM SCT250=



000
FTUS44 KHGX 301120
TAFCXO
TAF
KCXO 301120Z 3012/3112 VRB03KT P6SM SCT100
      TEMPO 3012/3014 5SM BR
     FM301400 15006KT P6SM SCT040
     FM310200 VRB04KT P6SM SCT250
     FM310900 VRB03KT 5SM BR SCT250=



000
FTUS44 KHGX 301120
TAFLBX
TAF
KLBX 301120Z 3012/3112 VRB04KT P6SM SCT018 SCT024 BKN035
      TEMPO 3012/3015 5SM BR BKN018 BKN024
     FM301500 16007KT P6SM VCSH SCT040
     FM310200 VRB04KT P6SM SCT250=



000
FTUS44 KHGX 301120
TAFCLL
TAF
KCLL 301120Z 3012/3112 17004KT P6SM SCT250
     FM301500 17009KT P6SM SCT050
     FM310200 16008KT P6SM SCT250
     FM310900 16008KT P6SM SCT015=



000
FTUS44 KHGX 301120
TAFHOU
TAF
KHOU 301120Z 3012/3112 VRB03KT P6SM FEW018 SCT050
     FM301500 16007KT P6SM SCT050
     FM310200 VRB04KT P6SM SCT250=



000
FTUS44 KHGX 301120
TAFGLS
TAF
KGLS 301120Z 3012/3112 11005KT P6SM VCSH SCT030
     FM301500 15009KT P6SM FEW050
     FM310200 17008KT P6SM SCT250=



000
FTUS44 KHGX 301120
TAFIAH
TAF
KIAH 301120Z 3012/3118 VRB03KT P6SM FEW250
     FM301500 15007KT P6SM SCT050
     FM310200 VRB04KT P6SM SCT250
     FM311500 18006KT P6SM FEW030=



000
FTUS44 KHGX 300901 AAA
TAFHOU
TAF AMD
KHOU 300901Z 3009/3106 VRB03KT P6SM FEW019 SCT250
     FM301500 16008KT P6SM SCT050 SCT200
     FM310200 VRB04KT P6SM FEW040 SCT150=



000
FTUS44 KHGX 300901 AAA
TAFHOU
TAF AMD
KHOU 300901Z 3009/3106 VRB03KT P6SM FEW019 SCT250
     FM301500 16008KT P6SM SCT050 SCT200
     FM310200 VRB04KT P6SM FEW040 SCT150=



000
FTUS44 KHGX 300901 AAA
TAFIAH
TAF AMD
KIAH 300901Z 3009/3112 VRB03KT P6SM FEW250
     FM301500 16008KT P6SM SCT050 SCT200
     FM310200 VRB04KT P6SM FEW040 SCT150=



000
FTUS44 KHGX 300901 AAA
TAFIAH
TAF AMD
KIAH 300901Z 3009/3112 VRB03KT P6SM FEW250
     FM301500 16008KT P6SM SCT050 SCT200
     FM310200 VRB04KT P6SM FEW040 SCT150=



000
FTUS44 KHGX 300520
TAFCLL
TAF
KCLL 300520Z 3006/3106 VRB04KT P6SM SCT110
     FM301100 VRB01KT 6SM BR SCT110
     FM301400 17009KT P6SM SCT050 SCT200
     FM310200 VRB04KT P6SM SCT150=



000
FTUS44 KHGX 300520
TAFCXO
TAF
KCXO 300520Z 3006/3106 VRB03KT P6SM SCT110
     FM301100 VRB01KT 5SM BR SCT110
     FM301400 17007KT P6SM SCT040 SCT200
     FM310200 VRB04KT P6SM SCT150=



000
FTUS44 KHGX 300520
TAFLBX
TAF
KLBX 300520Z 3006/3106 VRB04KT P6SM BKN120
     FM301100 VRB01KT 5SM BR VCSH FEW110
     FM301500 16007KT P6SM SCT040 SCT200
     FM310200 VRB04KT P6SM FEW040 SCT150=



000
FTUS44 KHGX 300520
TAFSGR
TAF
KSGR 300520Z 3006/3106 VRB04KT P6SM BKN120
     FM301500 17007KT P6SM SCT040 SCT200
     FM310200 VRB04KT P6SM FEW040 SCT150=



000
FTUS44 KHGX 300520
TAFHOU
TAF
KHOU 300520Z 3006/3106 VRB03KT P6SM SCT120
     FM301500 16008KT P6SM SCT050 SCT200
     FM310200 VRB04KT P6SM FEW040 SCT150=



000
FTUS44 KHGX 300520
TAFGLS
TAF
KGLS 300520Z 3006/3106 VRB04KT P6SM BKN120
     FM301100 16006KT P6SM VCSH FEW050 SCT120
     FM301500 16008KT P6SM FEW050 SCT120=



000
FTUS44 KHGX 300520
TAFIAH
TAF
KIAH 300520Z 3006/3112 VRB03KT P6SM BKN120
     FM301500 16008KT P6SM SCT050 SCT200
     FM310200 VRB04KT P6SM FEW040 SCT150=



000
FTUS44 KHGX 300520
TAFUTS
TAF
KUTS 300520Z 3006/3106 VRB03KT P6SM SCT110
     FM301100 VRB01KT 6SM BR SCT110
     FM301400 17007KT P6SM SCT050 SCT200
     FM310200 VRB04KT P6SM SCT150=



000
FTUS44 KHGX 300520
TAFSGR
TAF
KSGR 300520Z 3006/3106 VRB04KT P6SM BKN120
     FM301500 17007KT P6SM SCT040 SCT200
     FM310200 VRB04KT P6SM FEW040 SCT150=



000
FTUS44 KHGX 300520
TAFIAH
TAF
KIAH 300520Z 3006/3112 VRB03KT P6SM BKN120
     FM301500 16008KT P6SM SCT050 SCT200
     FM310200 VRB04KT P6SM FEW040 SCT150=



000
FTUS44 KHGX 300520
TAFLBX
TAF
KLBX 300520Z 3006/3106 VRB04KT P6SM BKN120
     FM301100 VRB01KT 5SM BR VCSH FEW110
     FM301500 16007KT P6SM SCT040 SCT200
     FM310200 VRB04KT P6SM FEW040 SCT150=



000
FTUS44 KHGX 300520
TAFCXO
TAF
KCXO 300520Z 3006/3106 VRB03KT P6SM SCT110
     FM301100 VRB01KT 5SM BR SCT110
     FM301400 17007KT P6SM SCT040 SCT200
     FM310200 VRB04KT P6SM SCT150=



000
FTUS44 KHGX 300520
TAFCLL
TAF
KCLL 300520Z 3006/3106 VRB04KT P6SM SCT110
     FM301100 VRB01KT 6SM BR SCT110
     FM301400 17009KT P6SM SCT050 SCT200
     FM310200 VRB04KT P6SM SCT150=



000
FTUS44 KHGX 300520
TAFGLS
TAF
KGLS 300520Z 3006/3106 VRB04KT P6SM BKN120
     FM301100 16006KT P6SM VCSH FEW050 SCT120
     FM301500 16008KT P6SM FEW050 SCT120=



000
FTUS44 KHGX 300520
TAFHOU
TAF
KHOU 300520Z 3006/3106 VRB03KT P6SM SCT120
     FM301500 16008KT P6SM SCT050 SCT200
     FM310200 VRB04KT P6SM FEW040 SCT150=



000
FTUS44 KHGX 300520
TAFUTS
TAF
KUTS 300520Z 3006/3106 VRB03KT P6SM SCT110
     FM301100 VRB01KT 6SM BR SCT110
     FM301400 17007KT P6SM SCT050 SCT200
     FM310200 VRB04KT P6SM SCT150=



000
FTUS44 KHGX 300301 AAA
TAFHOU
TAF AMD
KHOU 300301Z 3003/3024 VRB04KT P6SM SCT120
     FM301500 18007KT P6SM SCT040
     FM302100 15007KT P6SM SCT050=



000
FTUS44 KHGX 300301 AAA
TAFHOU
TAF AMD
KHOU 300301Z 3003/3024 VRB04KT P6SM SCT120
     FM301500 18007KT P6SM SCT040
     FM302100 15007KT P6SM SCT050=



000
FTUS44 KHGX 300300 AAA
TAFIAH
TAF AMD
KIAH 300300Z 3003/3106 VRB03KT P6SM BKN120
     FM301500 18008KT P6SM SCT035
     FM302100 15007KT P6SM SCT050
     FM310200 VRB04KT P6SM FEW040 SCT250=



000
FTUS44 KHGX 300300 AAA
TAFIAH
TAF AMD
KIAH 300300Z 3003/3106 VRB03KT P6SM BKN120
     FM301500 18008KT P6SM SCT035
     FM302100 15007KT P6SM SCT050
     FM310200 VRB04KT P6SM FEW040 SCT250=



000
FTUS44 KHGX 292321
TAFIAH
TAF
KIAH 292321Z 3000/3106 VRB03KT P6SM FEW070 BKN120
     FM301500 18008KT P6SM SCT035
     FM302100 15007KT P6SM SCT050
     FM310200 VRB04KT P6SM FEW040 SCT250=



000
FTUS44 KHGX 292321
TAFSGR
TAF
KSGR 292321Z 3000/3024 VRB04KT P6SM FEW070 BKN120
     FM301500 17007KT P6SM SCT040=



000
FTUS44 KHGX 292321
TAFCLL
TAF
KCLL 292321Z 3000/3024 VRB04KT P6SM FEW110
     FM301500 17009KT P6SM SCT050 SCT200=



000
FTUS44 KHGX 292321
TAFGLS
TAF
KGLS 292321Z 3000/3024 VRB06KT P6SM SCT040 BKN120
     FM301500 16008KT P6SM FEW050 SCT250=



000
FTUS44 KHGX 292321
TAFHOU
TAF
KHOU 292321Z 3000/3024 VRB04KT P6SM FEW070 BKN120
     FM301500 18007KT P6SM SCT040
     FM302100 15007KT P6SM SCT050=



000
FTUS44 KHGX 292321
TAFCXO
TAF
KCXO 292321Z 3000/3024 VRB03KT P6SM FEW110
     FM301500 17007KT P6SM SCT040=



000
FTUS44 KHGX 292321
TAFUTS
TAF
KUTS 292321Z 3000/3024 VRB03KT P6SM SCT110
     FM301500 17007KT P6SM SCT050 SCT200=



000
FTUS44 KHGX 292321
TAFLBX
TAF
KLBX 292321Z 3000/3024 VRB04KT P6SM FEW070 BKN120
     FM301500 18007KT P6SM SCT040
     FM302000 15007KT P6SM SCT050=



000
FTUS44 KHGX 292321
TAFCLL
TAF
KCLL 292321Z 3000/3024 VRB04KT P6SM FEW110
     FM301500 17009KT P6SM SCT050 SCT200=



000
FTUS44 KHGX 292321
TAFIAH
TAF
KIAH 292321Z 3000/3106 VRB03KT P6SM FEW070 BKN120
     FM301500 18008KT P6SM SCT035
     FM302100 15007KT P6SM SCT050
     FM310200 VRB04KT P6SM FEW040 SCT250=



000
FTUS44 KHGX 292321
TAFLBX
TAF
KLBX 292321Z 3000/3024 VRB04KT P6SM FEW070 BKN120
     FM301500 18007KT P6SM SCT040
     FM302000 15007KT P6SM SCT050=



000
FTUS44 KHGX 292321
TAFHOU
TAF
KHOU 292321Z 3000/3024 VRB04KT P6SM FEW070 BKN120
     FM301500 18007KT P6SM SCT040
     FM302100 15007KT P6SM SCT050=



000
FTUS44 KHGX 292321
TAFGLS
TAF
KGLS 292321Z 3000/3024 VRB06KT P6SM SCT040 BKN120
     FM301500 16008KT P6SM FEW050 SCT250=



000
FTUS44 KHGX 292321
TAFSGR
TAF
KSGR 292321Z 3000/3024 VRB04KT P6SM FEW070 BKN120
     FM301500 17007KT P6SM SCT040=



000
FTUS44 KHGX 292321
TAFCXO
TAF
KCXO 292321Z 3000/3024 VRB03KT P6SM FEW110
     FM301500 17007KT P6SM SCT040=



000
FTUS44 KHGX 292321
TAFUTS
TAF
KUTS 292321Z 3000/3024 VRB03KT P6SM SCT110
     FM301500 17007KT P6SM SCT050 SCT200=



000
FTUS44 KHGX 292200 AAC
TAFLBX
TAF AMD
KLBX 292200Z 2922/3018 VRB15G30KT 1/2SM +TSRA BKN035CB
     FM292300 04012KT P6SM VCTS SCT040CB
     FM300200 VRB03KT P6SM SCT040=



000
FTUS44 KHGX 292200 AAC
TAFLBX
TAF AMD
KLBX 292200Z 2922/3018 VRB15G30KT 1/2SM +TSRA BKN035CB
     FM292300 04012KT P6SM VCTS SCT040CB
     FM300200 VRB03KT P6SM SCT040=



000
FTUS44 KHGX 292129 AAB
TAFLBX
TAF AMD
KLBX 292129Z 2921/3018 04012KT P6SM VCTS SCT040CB
      TEMPO 2921/2922 36015G30KT 2SM TSRA BKN035CB
     FM300200 VRB03KT P6SM SCT040=



000
FTUS44 KHGX 292129 AAB
TAFLBX
TAF AMD
KLBX 292129Z 2921/3018 04012KT P6SM VCTS SCT040CB
      TEMPO 2921/2922 36015G30KT 2SM TSRA BKN035CB
     FM300200 VRB03KT P6SM SCT040=



000
FTUS44 KHGX 292129 AAC
TAFSGR
TAF AMD
KSGR 292129Z 2921/3018 VRB03KT P6SM VCTS FEW080CB
      TEMPO 2921/2922 36015G20KT 2SM TSRA BKN035CB
     FM300200 VRB03KT P6SM SCT040=



000
FTUS44 KHGX 292129 AAC
TAFSGR
TAF AMD
KSGR 292129Z 2921/3018 VRB03KT P6SM VCTS FEW080CB
      TEMPO 2921/2922 36015G20KT 2SM TSRA BKN035CB
     FM300200 VRB03KT P6SM SCT040=



000
FTUS44 KHGX 292108 AAA
TAFLBX
TAF AMD
KLBX 292108Z 2921/3018 04012KT P6SM VCTS SCT040CB
      TEMPO 2921/2922 36015G30KT TSRA BKN035CB
     FM300200 VRB03KT P6SM SCT040=



000
FTUS44 KHGX 292107 AAB
TAFSGR
TAF AMD
KSGR 292107Z 2921/3018 VRB03KT P6SM VCTS FEW080CB
      TEMPO 2921/2922 36015G20KT TSRA BKN035CB
     FM300200 VRB03KT P6SM SCT040=



000
FTUS44 KHGX 292107 AAB
TAFSGR
TAF AMD
KSGR 292107Z 2921/3018 VRB03KT P6SM VCTS FEW080CB
      TEMPO 2921/2922 36015G20KT TSRA BKN035CB
     FM300200 VRB03KT P6SM SCT040=



000
FTUS44 KHGX 292106 AAB
TAFHOU
TAF AMD
KHOU 292106Z 2921/3018 VRB03KT P6SM VCTS FEW050CB BKN080
      TEMPO 2921/2922 36015G20KT TSRA BKN035CB
     FM300200 VRB03KT P6SM SCT040
     FM301500 18007KT P6SM SCT040=



000
FTUS44 KHGX 292106 AAB
TAFHOU
TAF AMD
KHOU 292106Z 2921/3018 VRB03KT P6SM VCTS FEW050CB BKN080
      TEMPO 2921/2922 36015G20KT TSRA BKN035CB
     FM300200 VRB03KT P6SM SCT040
     FM301500 18007KT P6SM SCT040=



000
FTUS44 KHGX 291940 AAA
TAFGLS
TAF AMD
KGLS 291940Z 2920/3018 VRB06KT P6SM VCTS FEW050CB BKN250
      TEMPO 2920/2922 VRB15G20KT 3SM TSRA BKN035CB
     FM300200 19005KT P6SM SCT040
     FM301500 13008KT P6SM SCT250=



000
FTUS44 KHGX 291940 AAA
TAFGLS
TAF AMD
KGLS 291940Z 2920/3018 VRB06KT P6SM VCTS FEW050CB BKN250
      TEMPO 2920/2922 VRB15G20KT 3SM TSRA BKN035CB
     FM300200 19005KT P6SM SCT040
     FM301500 13008KT P6SM SCT250=



000
FTUS44 KHGX 291939 AAA
TAFCLL
TAF AMD
KCLL 291939Z 2920/3018 03005KT P6SM VCTS FEW050CB SCT090
      TEMPO 2920/2921 VRB15G20KT TSRA BKN050CB
     FM300100 VRB03KT P6SM SCT040
     FM301500 17007KT P6SM SCT050=



000
FTUS44 KHGX 291907 AAA
TAFSGR
TAF AMD
KSGR 291907Z 2919/3018 VRB03KT P6SM VCTS FEW080CB
      TEMPO 2919/2921 36015G20KT TSRA BKN035CB
     FM300200 VRB03KT P6SM SCT040=



000
FTUS44 KHGX 291907 AAA
TAFSGR
TAF AMD
KSGR 291907Z 2919/3018 VRB03KT P6SM VCTS FEW080CB
      TEMPO 2919/2921 36015G20KT TSRA BKN035CB
     FM300200 VRB03KT P6SM SCT040=



000
FTUS44 KHGX 291906 AAA
TAFHOU
TAF AMD
KHOU 291906Z 2919/3018 VRB03KT P6SM VCTS FEW050CB BKN080
      TEMPO 2919/2921 36015G20KT TSRA BKN035CB
     FM300200 VRB03KT P6SM SCT040
     FM301500 18007KT P6SM SCT040=



000
FTUS44 KHGX 291906 CCA
TAFCXO
TAF COR
KCXO 291906Z 2919/3018 08004KT P6SM VCTS SCT060CB BKN090
     FM300100 VRB02KT P6SM SCT040
     FM301500 17007KT P6SM SCT040=



000
FTUS44 KHGX 291906 AAA
TAFHOU
TAF AMD
KHOU 291906Z 2919/3018 VRB03KT P6SM VCTS FEW050CB BKN080
      TEMPO 2919/2921 36015G20KT TSRA BKN035CB
     FM300200 VRB03KT P6SM SCT040
     FM301500 18007KT P6SM SCT040=



000
FTUS44 KHGX 291905 AAA
TAFIAH
TAF AMD
KIAH 291905Z 2919/3024 VRB04KT P6SM VCTS SCT035 SCT050CB BKN250
      TEMPO 2919/2921 36015G20KT TSRA BKN035CB
     FM300100 VRB03KT P6SM SCT040
     FM301500 17007KT P6SM SCT035
     FM301800 15006KT P6SM VCTS SCT050CB=



000
FTUS44 KHGX 291905 AAA
TAFIAH
TAF AMD
KIAH 291905Z 2919/3024 VRB04KT P6SM VCTS SCT035 SCT050CB BKN250
      TEMPO 2919/2921 36015G20KT TSRA BKN035CB
     FM300100 VRB03KT P6SM SCT040
     FM301500 17007KT P6SM SCT035
     FM301800 15006KT P6SM VCTS SCT050CB=



000
FTUS44 KHGX 291905 AAA
TAFCXO
TAF AMD
KCXO 291905Z 2919/3018 08004KT P6SM VCTS SCT060CB BKN090
      TEMPO 2919/2920 TSRA BKN035CB
     FM300100 VRB02KT P6SM SCT040
     FM301500 17007KT P6SM SCT040=



000
FTUS44 KHGX 291905 AAA
TAFCXO
TAF AMD
KCXO 291905Z 2919/3018 08004KT P6SM VCTS SCT060CB BKN090
      TEMPO 2919/2920 TSRA BKN035CB
     FM300100 VRB02KT P6SM SCT040
     FM301500 17007KT P6SM SCT040=



000
FTUS44 KHGX 291724
TAFHOU
TAF
KHOU 291724Z 2918/3018 31008KT P6SM VCTS FEW050CB BKN080
     FM300200 VRB03KT P6SM SCT040
     FM301500 18007KT P6SM SCT040=



000
FTUS44 KHGX 291724
TAFSGR
TAF
KSGR 291724Z 2918/3018 VRB04KT P6SM VCSH FEW050 BKN100
     FM291900 04006KT P6SM VCTS SCT050CB
     FM300200 VRB03KT P6SM SCT040=



000
FTUS44 KHGX 291724
TAFIAH
TAF
KIAH 291724Z 2918/3024 VRB04KT P6SM VCTS SCT035 SCT050CB BKN250
     FM300100 VRB03KT P6SM SCT040
     FM301500 17007KT P6SM SCT035
     FM301800 15006KT P6SM VCTS SCT050CB=



000
FTUS44 KHGX 291724
TAFCLL
TAF
KCLL 291724Z 2918/3018 03005KT P6SM VCTS FEW050CB SCT090
     FM300100 VRB03KT P6SM SCT040
     FM301500 17007KT P6SM SCT050=



000
FTUS44 KHGX 291724
TAFGLS
TAF
KGLS 291724Z 2918/3018 VRB06KT P6SM VCTS FEW050CB BKN250
     FM300200 19005KT P6SM SCT040
     FM301500 13008KT P6SM SCT250=



000
FTUS44 KHGX 291724
TAFCXO
TAF
KCXO 291724Z 2918/3018 08004KT P6SM VCTS SCT060CB BKN090
     FM300100 VRB02KT P6SM SCT040
     FM301500 17007KT P6SM SCT040=



000
FTUS44 KHGX 291724
TAFLBX
TAF
KLBX 291724Z 2918/3018 35005KT P6SM VCSH FEW050 BKN250
     FM291900 VRB04KT P6SM VCTS SCT040CB
     FM300200 VRB03KT P6SM SCT040=



000
FTUS44 KHGX 291724
TAFUTS
TAF
KUTS 291724Z 2918/3018 12003KT P6SM VCTS FEW050CB SCT120
     FM300100 VRB02KT P6SM SCT040=



000
FTUS44 KHGX 291724
TAFLBX
TAF
KLBX 291724Z 2918/3018 35005KT P6SM VCSH FEW050 BKN250
     FM291900 VRB04KT P6SM VCTS SCT040CB
     FM300200 VRB03KT P6SM SCT040=



000
FTUS44 KHGX 291724
TAFIAH
TAF
KIAH 291724Z 2918/3024 VRB04KT P6SM VCTS SCT035 SCT050CB BKN250
     FM300100 VRB03KT P6SM SCT040
     FM301500 17007KT P6SM SCT035
     FM301800 15006KT P6SM VCTS SCT050CB=



000
FTUS44 KHGX 291724
TAFCLL
TAF
KCLL 291724Z 2918/3018 03005KT P6SM VCTS FEW050CB SCT090
     FM300100 VRB03KT P6SM SCT040
     FM301500 17007KT P6SM SCT050=



000
FTUS44 KHGX 291724
TAFCXO
TAF
KCXO 291724Z 2918/3018 08004KT P6SM VCTS SCT060CB BKN090
     FM300100 VRB02KT P6SM SCT040
     FM301500 17007KT P6SM SCT040=



000
FTUS44 KHGX 291724
TAFSGR
TAF
KSGR 291724Z 2918/3018 VRB04KT P6SM VCSH FEW050 BKN100
     FM291900 04006KT P6SM VCTS SCT050CB
     FM300200 VRB03KT P6SM SCT040=



000
FTUS44 KHGX 291724
TAFUTS
TAF
KUTS 291724Z 2918/3018 12003KT P6SM VCTS FEW050CB SCT120
     FM300100 VRB02KT P6SM SCT040=



000
FTUS44 KHGX 291724
TAFGLS
TAF
KGLS 291724Z 2918/3018 VRB06KT P6SM VCTS FEW050CB BKN250
     FM300200 19005KT P6SM SCT040
     FM301500 13008KT P6SM SCT250=



000
FTUS44 KHGX 291724
TAFHOU
TAF
KHOU 291724Z 2918/3018 31008KT P6SM VCTS FEW050CB BKN080
     FM300200 VRB03KT P6SM SCT040
     FM301500 18007KT P6SM SCT040=



000
FTUS44 KHGX 291626 AAB
TAFHOU
TAF AMD
KHOU 291626Z 2916/3012 27008KT P6SM VCSH FEW050 SCT090
     FM291800 VRB04KT P6SM VCTS SCT050CB
     FM300200 VRB03KT P6SM SCT040=



000
FTUS44 KHGX 291626 AAB
TAFHOU
TAF AMD
KHOU 291626Z 2916/3012 27008KT P6SM VCSH FEW050 SCT090
     FM291800 VRB04KT P6SM VCTS SCT050CB
     FM300200 VRB03KT P6SM SCT040=



000
FTUS44 KHGX 291626 AAB
TAFIAH
TAF AMD
KIAH 291626Z 2916/3018 33007KT P6SM VCSH FEW020 SCT100 BKN150
     FM291800 01005KT P6SM VCTS SCT050CB
     FM300100 VRB03KT P6SM SCT040
     FM301600 17006KT P6SM SCT035=



000
FTUS44 KHGX 291626 AAB
TAFIAH
TAF AMD
KIAH 291626Z 2916/3018 33007KT P6SM VCSH FEW020 SCT100 BKN150
     FM291800 01005KT P6SM VCTS SCT050CB
     FM300100 VRB03KT P6SM SCT040
     FM301600 17006KT P6SM SCT035=



    US Dept of Commerce
    National Oceanic and Atmospheric Administration
    National Weather Service
    1325 East West Highway
    Silver Spring, MD 20910
    Page Author: NWS Internet Services Team
Disclaimer
Information Quality
Credits
Glossary
Privacy Policy
Freedom of Information Act (FOIA)
About Us
Career Opportunities